Wetterdaten: Mittwoch, 10.12.2014
Datum Zeit Temp. Aussen +5cm Feuchte Auss Luftdruck Regen Sonnenschein Regendauer Solar Windben
10.12.2014 00:00 3,4 C 2,2 C 92 % 1023,9 hPa 0,0 l/m 0 min 0 min 0 W/m 16,7 km/h (3 Bft)
10.12.2014 00:02 3,5 C 2,2 C 92 % 1023,9 hPa 0,0 l/m 0 min 0 min 0 W/m 27,2 km/h (4 Bft)
10.12.2014 00:05 3,5 C 2,2 C 92 % 1023,9 hPa 0,0 l/m 0 min 0 min 0 W/m 23,0 km/h (4 Bft)
10.12.2014 00:06 3,5 C 2,8 C 92 % 1023,9 hPa 0,0 l/m 0 min 0 min 0 W/m 23,0 km/h (4 Bft)
10.12.2014 00:08 3,5 C 2,2 C 92 % 1023,8 hPa 0,0 l/m 0 min 0 min 0 W/m 20,9 km/h (4 Bft)
10.12.2014 00:10 3,5 C 2,2 C 92 % 1023,8 hPa 0,0 l/m 0 min 0 min 0 W/m 14,6 km/h (3 Bft)
10.12.2014 00:12 3,5 C 2,8 C 92 % 1023,8 hPa 0,0 l/m 0 min 0 min 0 W/m 14,6 km/h (3 Bft)
10.12.2014 00:14 3,6 C 2,8 C 92 % 1023,7 hPa 0,0 l/m 0 min 0 min 0 W/m 16,7 km/h (3 Bft)
10.12.2014 00:16 3,6 C 2,8 C 92 % 1023,6 hPa 0,0 l/m 0 min 0 min 0 W/m 16,7 km/h (3 Bft)
10.12.2014 00:18 3,6 C 2,2 C 91 % 1023,6 hPa 0,0 l/m 0 min 0 min 0 W/m 20,9 km/h (4 Bft)
10.12.2014 00:20 3,6 C 2,2 C 91 % 1023,6 hPa 0,0 l/m 0 min 0 min 0 W/m 14,6 km/h (3 Bft)
10.12.2014 00:22 3,6 C 2,2 C 91 % 1023,6 hPa 0,0 l/m 0 min 0 min 0 W/m 16,7 km/h (3 Bft)
10.12.2014 00:24 3,6 C 2,2 C 91 % 1023,6 hPa 0,0 l/m 0 min 0 min 0 W/m 20,9 km/h (4 Bft)
10.12.2014 00:26 3,6 C 2,2 C 91 % 1023,6 hPa 0,0 l/m 0 min 0 min 0 W/m 14,6 km/h (3 Bft)
10.12.2014 00:28 3,6 C 2,2 C 91 % 1023,6 hPa 0,0 l/m 0 min 0 min 0 W/m 16,7 km/h (3 Bft)
10.12.2014 00:30 3,6 C 2,8 C 91 % 1023,6 hPa 0,0 l/m 0 min 0 min 0 W/m 23,0 km/h (4 Bft)
10.12.2014 00:32 3,7 C 2,8 C 91 % 1023,5 hPa 0,0 l/m 0 min 0 min 0 W/m 16,7 km/h (3 Bft)
10.12.2014 00:34 3,7 C 2,8 C 91 % 1023,5 hPa 0,0 l/m 0 min 0 min 0 W/m 23,0 km/h (4 Bft)
10.12.2014 00:36 3,7 C 2,8 C 91 % 1023,3 hPa 0,0 l/m 0 min 0 min 0 W/m 23,0 km/h (4 Bft)
10.12.2014 00:38 3,7 C 2,8 C 91 % 1023,2 hPa 0,0 l/m 0 min 0 min 0 W/m 16,7 km/h (3 Bft)
10.12.2014 00:40 3,7 C 2,8 C 91 % 1023,2 hPa 0,0 l/m 0 min 0 min 0 W/m 23,0 km/h (4 Bft)
10.12.2014 00:42 3,7 C 2,8 C 91 % 1023,0 hPa 0,0 l/m 0 min 0 min 0 W/m 18,8 km/h (3 Bft)
10.12.2014 00:44 3,7 C 2,8 C 90 % 1023,0 hPa 0,0 l/m 0 min 0 min 0 W/m 16,7 km/h (3 Bft)
10.12.2014 00:46 3,7 C 2,8 C 90 % 1023,0 hPa 0,0 l/m 0 min 0 min 0 W/m 20,9 km/h (4 Bft)
10.12.2014 00:48 3,8 C 2,8 C 90 % 1023,0 hPa 0,0 l/m 0 min 0 min 0 W/m 20,9 km/h (4 Bft)
10.12.2014 00:50 3,8 C 2,8 C 90 % 1022,9 hPa 0,0 l/m 0 min 0 min 0 W/m 18,8 km/h (3 Bft)
10.12.2014 00:52 3,8 C 2,8 C 90 % 1022,9 hPa 0,0 l/m 0 min 0 min 0 W/m 18,8 km/h (3 Bft)
10.12.2014 00:54 3,8 C 2,8 C 90 % 1022,9 hPa 0,0 l/m 0 min 0 min 0 W/m 14,6 km/h (3 Bft)
10.12.2014 00:56 3,8 C 2,8 C 90 % 1022,9 hPa 0,0 l/m 0 min 0 min 0 W/m 14,6 km/h (3 Bft)
10.12.2014 00:58 3,8 C 2,8 C 90 % 1022,9 hPa 0,0 l/m 0 min 0 min 0 W/m 14,6 km/h (3 Bft)
10.12.2014 01:00 3,8 C 2,8 C 90 % 1022,9 hPa 0,0 l/m 0 min 0 min 0 W/m 31,4 km/h (5 Bft)
10.12.2014 01:02 3,8 C 2,8 C 90 % 1022,8 hPa 0,0 l/m 0 min 0 min 0 W/m 14,6 km/h (3 Bft)
10.12.2014 01:04 3,9 C 2,8 C 90 % 1022,8 hPa 0,0 l/m 0 min 0 min 0 W/m 18,8 km/h (3 Bft)
10.12.2014 01:06 3,9 C 2,8 C 90 % 1022,7 hPa 0,0 l/m 0 min 0 min 0 W/m 18,8 km/h (3 Bft)
10.12.2014 01:08 3,9 C 2,8 C 90 % 1022,7 hPa 0,0 l/m 0 min 0 min 0 W/m 25,1 km/h (4 Bft)
10.12.2014 01:10 3,9 C 2,8 C 90 % 1022,7 hPa 0,0 l/m 0 min 0 min 0 W/m 27,2 km/h (4 Bft)
10.12.2014 01:12 3,9 C 2,8 C 89 % 1022,8 hPa 0,0 l/m 0 min 0 min 0 W/m 14,6 km/h (3 Bft)
10.12.2014 01:14 3,9 C 2,8 C 89 % 1022,7 hPa 0,0 l/m 0 min 0 min 0 W/m 25,1 km/h (4 Bft)
10.12.2014 01:16 3,9 C 2,8 C 89 % 1022,7 hPa 0,0 l/m 0 min 0 min 0 W/m 14,6 km/h (3 Bft)
10.12.2014 01:18 4,0 C 2,8 C 89 % 1022,6 hPa 0,0 l/m 0 min 0 min 0 W/m 23,0 km/h (4 Bft)
10.12.2014 01:20 4,0 C 2,8 C 89 % 1022,6 hPa 0,0 l/m 0 min 0 min 0 W/m 23,0 km/h (4 Bft)
10.12.2014 01:22 4,0 C 2,8 C 89 % 1022,5 hPa 0,0 l/m 0 min 0 min 0 W/m 18,8 km/h (3 Bft)
10.12.2014 01:24 4,1 C 2,8 C 89 % 1022,4 hPa 0,0 l/m 0 min 0 min 0 W/m 25,1 km/h (4 Bft)
10.12.2014 01:26 4,1 C 2,8 C 89 % 1022,4 hPa 0,0 l/m 0 min 0 min 0 W/m 29,3 km/h (5 Bft)
10.12.2014 01:28 4,1 C 2,8 C 89 % 1022,4 hPa 0,0 l/m 0 min 0 min 0 W/m 27,2 km/h (4 Bft)
10.12.2014 01:30 4,1 C 2,8 C 89 % 1022,2 hPa 0,0 l/m 0 min 0 min 0 W/m 27,2 km/h (4 Bft)
10.12.2014 01:32 4,1 C 2,8 C 89 % 1022,3 hPa 0,0 l/m 0 min 0 min 0 W/m 27,2 km/h (4 Bft)
10.12.2014 01:34 4,1 C 2,8 C 88 % 1022,2 hPa 0,0 l/m 0 min 0 min 0 W/m 33,5 km/h (5 Bft)
10.12.2014 01:36 4,1 C 2,8 C 88 % 1022,2 hPa 0,0 l/m 0 min 0 min 0 W/m 20,9 km/h (4 Bft)
10.12.2014 01:38 4,1 C 2,8 C 88 % 1022,1 hPa 0,0 l/m 0 min 0 min 0 W/m 25,1 km/h (4 Bft)
10.12.2014 01:40 4,2 C 2,8 C 88 % 1022,0 hPa 0,0 l/m 0 min 0 min 0 W/m 33,5 km/h (5 Bft)
10.12.2014 01:42 4,2 C 2,8 C 88 % 1022,1 hPa 0,0 l/m 0 min 0 min 0 W/m 27,2 km/h (4 Bft)
10.12.2014 01:44 4,2 C 2,8 C 87 % 1022,1 hPa 0,0 l/m 0 min 0 min 0 W/m 27,2 km/h (4 Bft)
10.12.2014 01:46 4,2 C 2,8 C 87 % 1022,0 hPa 0,0 l/m 0 min 0 min 0 W/m 18,8 km/h (3 Bft)
10.12.2014 01:48 4,2 C 2,8 C 87 % 1021,9 hPa 0,0 l/m 0 min 0 min 0 W/m 25,1 km/h (4 Bft)
10.12.2014 01:50 4,2 C 2,8 C 87 % 1021,7 hPa 0,0 l/m 0 min 0 min 0 W/m 25,1 km/h (4 Bft)
10.12.2014 01:52 4,2 C 2,8 C 87 % 1021,7 hPa 0,0 l/m 0 min 0 min 0 W/m 16,7 km/h (3 Bft)
10.12.2014 01:54 4,2 C 2,8 C 86 % 1021,6 hPa 0,0 l/m 0 min 0 min 0 W/m 18,8 km/h (3 Bft)
10.12.2014 01:56 4,2 C 2,8 C 86 % 1021,6 hPa 0,0 l/m 0 min 0 min 0 W/m 20,9 km/h (4 Bft)
10.12.2014 01:58 4,2 C 2,8 C 86 % 1021,4 hPa 0,0 l/m 0 min 0 min 0 W/m 25,1 km/h (4 Bft)
10.12.2014 02:00 4,2 C 2,8 C 86 % 1021,3 hPa 0,0 l/m 0 min 0 min 0 W/m 23,0 km/h (4 Bft)
10.12.2014 02:02 4,2 C 2,8 C 86 % 1021,3 hPa 0,0 l/m 0 min 0 min 0 W/m 12,6 km/h (3 Bft)
10.12.2014 02:04 4,2 C 2,8 C 86 % 1021,4 hPa 0,0 l/m 0 min 0 min 0 W/m 18,8 km/h (3 Bft)
10.12.2014 02:06 4,2 C 2,8 C 86 % 1021,4 hPa 0,0 l/m 0 min 0 min 0 W/m 23,0 km/h (4 Bft)
10.12.2014 02:08 4,2 C 2,8 C 86 % 1021,5 hPa 0,0 l/m 0 min 0 min 0 W/m 25,1 km/h (4 Bft)
10.12.2014 02:10 4,2 C 2,8 C 86 % 1021,4 hPa 0,0 l/m 0 min 0 min 0 W/m 20,9 km/h (4 Bft)
10.12.2014 02:12 4,2 C 2,8 C 86 % 1021,2 hPa 0,0 l/m 0 min 0 min 0 W/m 29,3 km/h (5 Bft)
10.12.2014 02:14 4,2 C 2,8 C 85 % 1021,0 hPa 0,0 l/m 0 min 0 min 0 W/m 20,9 km/h (4 Bft)
10.12.2014 02:16 4,2 C 2,8 C 85 % 1021,1 hPa 0,0 l/m 0 min 0 min 0 W/m 25,1 km/h (4 Bft)
10.12.2014 02:18 4,2 C 2,8 C 85 % 1021,0 hPa 0,0 l/m 0 min 0 min 0 W/m 18,8 km/h (3 Bft)
10.12.2014 02:20 4,2 C 2,8 C 85 % 1020,9 hPa 0,0 l/m 0 min 0 min 0 W/m 29,3 km/h (5 Bft)
10.12.2014 02:22 4,2 C 2,8 C 85 % 1020,9 hPa 0,0 l/m 0 min 0 min 0 W/m 23,0 km/h (4 Bft)
10.12.2014 02:24 4,2 C 2,8 C 85 % 1020,8 hPa 0,0 l/m 0 min 0 min 0 W/m 29,3 km/h (5 Bft)
10.12.2014 02:26 4,2 C 2,8 C 85 % 1020,8 hPa 0,0 l/m 0 min 0 min 0 W/m 16,7 km/h (3 Bft)
10.12.2014 02:28 4,2 C 2,8 C 85 % 1020,7 hPa 0,0 l/m 0 min 0 min 0 W/m 33,5 km/h (5 Bft)
10.12.2014 02:30 4,2 C 2,8 C 85 % 1020,6 hPa 0,0 l/m 0 min 0 min 0 W/m 25,1 km/h (4 Bft)
10.12.2014 02:32 4,1 C 2,8 C 85 % 1020,5 hPa 0,0 l/m 0 min 0 min 0 W/m 27,2 km/h (4 Bft)
10.12.2014 02:34 4,1 C 2,8 C 85 % 1020,6 hPa 0,0 l/m 0 min 0 min 0 W/m 33,5 km/h (5 Bft)
10.12.2014 02:36 4,1 C 2,8 C 85 % 1020,5 hPa 0,0 l/m 0 min 0 min 0 W/m 20,9 km/h (4 Bft)
10.12.2014 02:38 4,1 C 2,8 C 85 % 1020,5 hPa 0,0 l/m 0 min 0 min 0 W/m 29,3 km/h (5 Bft)
10.12.2014 02:40 4,1 C 2,8 C 84 % 1020,4 hPa 0,0 l/m 0 min 0 min 0 W/m 20,9 km/h (4 Bft)
10.12.2014 02:42 4,1 C 2,8 C 84 % 1020,3 hPa 0,0 l/m 0 min 0 min 0 W/m 29,3 km/h (5 Bft)
10.12.2014 02:44 4,1 C 2,8 C 84 % 1020,3 hPa 0,0 l/m 0 min 0 min 0 W/m 27,2 km/h (4 Bft)
10.12.2014 02:46 4,1 C 2,8 C 84 % 1020,4 hPa 0,0 l/m 0 min 0 min 0 W/m 25,1 km/h (4 Bft)
10.12.2014 02:48 4,1 C 2,8 C 84 % 1020,4 hPa 0,0 l/m 0 min 0 min 0 W/m 27,2 km/h (4 Bft)
10.12.2014 02:50 4,1 C 2,8 C 84 % 1020,3 hPa 0,0 l/m 0 min 0 min 0 W/m 31,4 km/h (5 Bft)
10.12.2014 02:52 4,1 C 2,8 C 84 % 1020,3 hPa 0,0 l/m 0 min 0 min 0 W/m 23,0 km/h (4 Bft)
10.12.2014 02:54 4,1 C 2,8 C 84 % 1020,3 hPa 0,0 l/m 0 min 0 min 0 W/m 25,1 km/h (4 Bft)
10.12.2014 02:56 4,1 C 2,8 C 84 % 1020,2 hPa 0,0 l/m 0 min 0 min 0 W/m 27,2 km/h (4 Bft)
10.12.2014 02:58 4,1 C 2,8 C 83 % 1020,2 hPa 0,0 l/m 0 min 0 min 0 W/m 35,6 km/h (5 Bft)
10.12.2014 03:00 4,1 C 2,8 C 83 % 1020,1 hPa 0,0 l/m 0 min 0 min 0 W/m 27,2 km/h (4 Bft)
10.12.2014 03:02 4,1 C 2,8 C 83 % 1020,0 hPa 0,0 l/m 0 min 0 min 0 W/m 33,5 km/h (5 Bft)
10.12.2014 03:04 4,1 C 2,8 C 83 % 1020,0 hPa 0,0 l/m 0 min 0 min 0 W/m 27,2 km/h (4 Bft)
10.12.2014 03:06 4,1 C 2,8 C 83 % 1019,9 hPa 0,0 l/m 0 min 0 min 0 W/m 37,7 km/h (5 Bft)
10.12.2014 03:08 4,1 C 2,8 C 82 % 1019,8 hPa 0,0 l/m 0 min 0 min 0 W/m 31,4 km/h (5 Bft)
10.12.2014 03:10 4,1 C 2,8 C 82 % 1019,9 hPa 0,0 l/m 0 min 0 min 0 W/m 20,9 km/h (4 Bft)
10.12.2014 03:12 4,1 C 2,8 C 82 % 1019,8 hPa 0,0 l/m 0 min 0 min 0 W/m 33,5 km/h (5 Bft)
10.12.2014 03:14 4,2 C 2,8 C 82 % 1019,8 hPa 0,0 l/m 0 min 0 min 0 W/m 29,3 km/h (5 Bft)
10.12.2014 03:16 4,2 C 2,8 C 81 % 1019,7 hPa 0,0 l/m 0 min 0 min 0 W/m 33,5 km/h (5 Bft)
10.12.2014 03:18 4,2 C 2,8 C 81 % 1020,0 hPa 0,0 l/m 0 min 0 min 0 W/m 23,0 km/h (4 Bft)
10.12.2014 03:20 4,2 C 2,8 C 81 % 1020,0 hPa 0,0 l/m 0 min 0 min 0 W/m 29,3 km/h (5 Bft)
10.12.2014 03:22 4,2 C 2,8 C 80 % 1020,0 hPa 0,0 l/m 0 min 0 min 0 W/m 27,2 km/h (4 Bft)
10.12.2014 03:24 4,2 C 2,8 C 80 % 1020,0 hPa 0,0 l/m 0 min 0 min 0 W/m 31,4 km/h (5 Bft)
10.12.2014 03:26 4,2 C 2,8 C 80 % 1019,8 hPa 0,0 l/m 0 min 0 min 0 W/m 27,2 km/h (4 Bft)
10.12.2014 03:28 4,3 C 2,8 C 80 % 1019,7 hPa 0,0 l/m 0 min 0 min 0 W/m 37,7 km/h (5 Bft)
10.12.2014 03:30 4,3 C 3,3 C 80 % 1019,6 hPa 0,0 l/m 0 min 0 min 0 W/m 27,2 km/h (4 Bft)
10.12.2014 03:32 4,3 C 3,3 C 79 % 1019,5 hPa 0,0 l/m 0 min 0 min 0 W/m 33,5 km/h (5 Bft)
10.12.2014 03:34 4,3 C 3,3 C 79 % 1019,5 hPa 0,0 l/m 0 min 0 min 0 W/m 33,5 km/h (5 Bft)
10.12.2014 03:36 4,3 C 3,3 C 79 % 1019,3 hPa 0,0 l/m 0 min 0 min 0 W/m 27,2 km/h (4 Bft)
10.12.2014 03:38 4,3 C 3,3 C 79 % 1019,3 hPa 0,0 l/m 0 min 0 min 0 W/m 29,3 km/h (5 Bft)
10.12.2014 03:40 4,3 C 3,3 C 79 % 1019,2 hPa 0,0 l/m 0 min 0 min 0 W/m 39,7 km/h (6 Bft)
10.12.2014 03:42 4,4 C 3,3 C 79 % 1019,3 hPa 0,0 l/m 0 min 0 min 0 W/m 27,2 km/h (4 Bft)
10.12.2014 03:44 4,4 C 3,3 C 78 % 1019,2 hPa 0,0 l/m 0 min 0 min 0 W/m 39,7 km/h (6 Bft)
10.12.2014 03:46 4,4 C 3,3 C 78 % 1019,0 hPa 0,0 l/m 0 min 0 min 0 W/m 33,5 km/h (5 Bft)
10.12.2014 03:48 4,4 C 3,3 C 78 % 1019,0 hPa 0,0 l/m 0 min 0 min 0 W/m 35,6 km/h (5 Bft)
10.12.2014 03:50 4,4 C 3,3 C 78 % 1018,9 hPa 0,0 l/m 0 min 0 min 0 W/m 31,4 km/h (5 Bft)
10.12.2014 03:52 4,4 C 3,3 C 78 % 1018,7 hPa 0,0 l/m 0 min 0 min 0 W/m 31,4 km/h (5 Bft)
10.12.2014 03:54 4,4 C 3,3 C 78 % 1018,6 hPa 0,0 l/m 0 min 0 min 0 W/m 27,2 km/h (4 Bft)
10.12.2014 03:56 4,5 C 3,3 C 78 % 1018,6 hPa 0,0 l/m 0 min 0 min 0 W/m 23,0 km/h (4 Bft)
10.12.2014 03:58 4,5 C 3,3 C 78 % 1018,5 hPa 0,0 l/m 0 min 0 min 0 W/m 25,1 km/h (4 Bft)
10.12.2014 04:00 4,5 C 3,3 C 78 % 1018,4 hPa 0,0 l/m 0 min 0 min 0 W/m 37,7 km/h (5 Bft)
10.12.2014 04:02 4,5 C 3,3 C 78 % 1018,3 hPa 0,0 l/m 0 min 0 min 0 W/m 27,2 km/h (4 Bft)
10.12.2014 04:04 4,5 C 3,3 C 78 % 1018,2 hPa 0,0 l/m 0 min 0 min 0 W/m 41,8 km/h (6 Bft)
10.12.2014 04:06 4,6 C 3,3 C 77 % 1018,2 hPa 0,0 l/m 0 min 0 min 0 W/m 33,5 km/h (5 Bft)
10.12.2014 04:08 4,6 C 3,3 C 77 % 1018,1 hPa 0,0 l/m 0 min 0 min 0 W/m 37,7 km/h (5 Bft)
10.12.2014 04:10 4,6 C 3,3 C 77 % 1018,1 hPa 0,0 l/m 0 min 0 min 0 W/m 33,5 km/h (5 Bft)
10.12.2014 04:12 4,6 C 3,3 C 77 % 1018,2 hPa 0,0 l/m 0 min 0 min 0 W/m 29,3 km/h (5 Bft)
10.12.2014 04:14 4,7 C 3,3 C 77 % 1018,0 hPa 0,0 l/m 0 min 0 min 0 W/m 33,5 km/h (5 Bft)
10.12.2014 04:16 4,7 C 3,3 C 77 % 1018,0 hPa 0,0 l/m 0 min 0 min 0 W/m 29,3 km/h (5 Bft)
10.12.2014 04:18 4,7 C 3,3 C 77 % 1018,0 hPa 0,0 l/m 0 min 0 min 0 W/m 37,7 km/h (5 Bft)
10.12.2014 04:20 4,7 C 3,3 C 77 % 1017,9 hPa 0,0 l/m 0 min 0 min 0 W/m 31,4 km/h (5 Bft)
10.12.2014 04:22 4,7 C 3,3 C 77 % 1018,0 hPa 0,0 l/m 0 min 0 min 0 W/m 31,4 km/h (5 Bft)
10.12.2014 04:24 4,7 C 3,3 C 77 % 1018,0 hPa 0,0 l/m 0 min 0 min 0 W/m 27,2 km/h (4 Bft)
10.12.2014 04:26 4,8 C 3,3 C 77 % 1017,8 hPa 0,0 l/m 0 min 0 min 0 W/m 37,7 km/h (5 Bft)
10.12.2014 04:28 4,8 C 3,3 C 77 % 1017,8 hPa 0,0 l/m 0 min 0 min 0 W/m 29,3 km/h (5 Bft)
10.12.2014 04:30 4,8 C 3,3 C 76 % 1017,7 hPa 0,0 l/m 0 min 0 min 0 W/m 31,4 km/h (5 Bft)
10.12.2014 04:32 4,8 C 3,9 C 76 % 1017,7 hPa 0,0 l/m 0 min 0 min 0 W/m 37,7 km/h (5 Bft)
10.12.2014 04:34 4,9 C 3,9 C 76 % 1017,6 hPa 0,0 l/m 0 min 0 min 0 W/m 27,2 km/h (4 Bft)
10.12.2014 04:36 4,9 C 3,9 C 76 % 1017,4 hPa 0,0 l/m 0 min 0 min 0 W/m 25,1 km/h (4 Bft)
10.12.2014 04:38 4,9 C 3,9 C 76 % 1017,4 hPa 0,0 l/m 0 min 0 min 0 W/m 37,7 km/h (5 Bft)
10.12.2014 04:40 4,9 C 3,9 C 76 % 1017,4 hPa 0,0 l/m 0 min 0 min 0 W/m 31,4 km/h (5 Bft)
10.12.2014 04:42 4,9 C 3,9 C 76 % 1017,3 hPa 0,0 l/m 0 min 0 min 0 W/m 35,6 km/h (5 Bft)
10.12.2014 04:44 4,9 C 3,9 C 76 % 1017,2 hPa 0,0 l/m 0 min 0 min 0 W/m 35,6 km/h (5 Bft)
10.12.2014 04:46 5,0 C 3,9 C 76 % 1017,0 hPa 0,0 l/m 0 min 0 min 0 W/m 39,7 km/h (6 Bft)
10.12.2014 04:48 5,0 C 3,3 C 77 % 1017,0 hPa 0,0 l/m 0 min 0 min 0 W/m 18,8 km/h (3 Bft)
10.12.2014 04:50 5,0 C 3,3 C 77 % 1017,0 hPa 0,0 l/m 0 min 0 min 0 W/m 43,9 km/h (6 Bft)
10.12.2014 04:52 5,1 C 3,3 C 77 % 1017,0 hPa 0,0 l/m 0 min 2 min 0 W/m 41,8 km/h (6 Bft)
10.12.2014 04:54 5,1 C 3,3 C 77 % 1016,9 hPa 0,0 l/m 0 min 2 min 0 W/m 33,5 km/h (5 Bft)
10.12.2014 04:56 5,1 C 3,3 C 77 % 1016,9 hPa 0,0 l/m 0 min 0 min 0 W/m 27,2 km/h (4 Bft)
10.12.2014 04:58 5,1 C 3,3 C 78 % 1016,8 hPa 0,0 l/m 0 min 0 min 0 W/m 46,0 km/h (6 Bft)
10.12.2014 05:00 5,1 C 3,3 C 78 % 1016,8 hPa 0,0 l/m 0 min 0 min 0 W/m 25,1 km/h (4 Bft)
10.12.2014 05:02 5,1 C 3,3 C 78 % 1016,8 hPa 0,0 l/m 0 min 0 min 0 W/m 37,7 km/h (5 Bft)
10.12.2014 05:04 5,1 C 3,3 C 78 % 1016,8 hPa 0,0 l/m 0 min 0 min 0 W/m 31,4 km/h (5 Bft)
10.12.2014 05:06 5,1 C 3,3 C 78 % 1016,7 hPa 0,0 l/m 0 min 0 min 0 W/m 27,2 km/h (4 Bft)
10.12.2014 05:08 5,1 C 3,3 C 79 % 1016,7 hPa 0,0 l/m 0 min 0 min 0 W/m 23,0 km/h (4 Bft)
10.12.2014 05:10 5,1 C 3,3 C 79 % 1016,7 hPa 0,0 l/m 0 min 2 min 0 W/m 35,6 km/h (5 Bft)
10.12.2014 05:12 5,1 C 3,3 C 79 % 1016,6 hPa 0,0 l/m 0 min 0 min 0 W/m 37,7 km/h (5 Bft)
10.12.2014 05:14 5,2 C 3,3 C 80 % 1016,5 hPa 0,0 l/m 0 min 2 min 0 W/m 29,3 km/h (5 Bft)
10.12.2014 05:16 5,2 C 3,3 C 80 % 1016,4 hPa 0,2 l/m 0 min 2 min 0 W/m 27,2 km/h (4 Bft)
10.12.2014 05:18 5,1 C 2,8 C 81 % 1016,5 hPa 0,0 l/m 0 min 2 min 0 W/m 46,0 km/h (6 Bft)
10.12.2014 05:20 5,1 C 2,8 C 81 % 1016,3 hPa 0,0 l/m 0 min 2 min 0 W/m 31,4 km/h (5 Bft)
10.12.2014 05:22 5,1 C 2,8 C 81 % 1016,5 hPa 0,0 l/m 0 min 2 min 0 W/m 23,0 km/h (4 Bft)
10.12.2014 05:24 5,1 C 2,8 C 82 % 1016,5 hPa 0,0 l/m 0 min 2 min 0 W/m 33,5 km/h (5 Bft)
10.12.2014 05:26 5,1 C 2,8 C 82 % 1016,5 hPa 0,0 l/m 0 min 2 min 0 W/m 25,1 km/h (4 Bft)
10.12.2014 05:28 5,1 C 2,8 C 83 % 1016,4 hPa 0,0 l/m 0 min 2 min 0 W/m 35,6 km/h (5 Bft)
10.12.2014 05:30 5,1 C 2,8 C 83 % 1016,3 hPa 0,2 l/m 0 min 2 min 0 W/m 23,0 km/h (4 Bft)
10.12.2014 05:32 5,0 C 2,8 C 83 % 1016,4 hPa 0,0 l/m 0 min 2 min 0 W/m 20,9 km/h (4 Bft)
10.12.2014 05:34 5,0 C 2,2 C 84 % 1016,4 hPa 0,0 l/m 0 min 2 min 0 W/m 27,2 km/h (4 Bft)
10.12.2014 05:36 4,9 C 2,2 C 84 % 1016,3 hPa 0,2 l/m 0 min 2 min 0 W/m 23,0 km/h (4 Bft)
10.12.2014 05:38 4,9 C 2,2 C 85 % 1016,3 hPa 0,0 l/m 0 min 2 min 0 W/m 18,8 km/h (3 Bft)
10.12.2014 05:40 4,9 C 2,2 C 85 % 1016,2 hPa 0,0 l/m 0 min 2 min 0 W/m 16,7 km/h (3 Bft)
10.12.2014 05:42 4,9 C 2,8 C 85 % 1016,2 hPa 0,0 l/m 0 min 2 min 0 W/m 20,9 km/h (4 Bft)
10.12.2014 05:44 4,9 C 2,2 C 86 % 1016,1 hPa 0,0 l/m 0 min 2 min 0 W/m 33,5 km/h (5 Bft)
10.12.2014 05:46 4,8 C 2,2 C 86 % 1016,0 hPa 0,0 l/m 0 min 2 min 0 W/m 25,1 km/h (4 Bft)
10.12.2014 05:48 4,8 C 2,8 C 86 % 1016,0 hPa 0,0 l/m 0 min 2 min 0 W/m 27,2 km/h (4 Bft)
10.12.2014 05:50 4,8 C 2,8 C 86 % 1016,0 hPa 0,0 l/m 0 min 2 min 0 W/m 23,0 km/h (4 Bft)
10.12.2014 05:52 4,8 C 2,8 C 87 % 1015,9 hPa 0,0 l/m 0 min 2 min 0 W/m 20,9 km/h (4 Bft)
10.12.2014 05:54 4,7 C 2,8 C 87 % 1015,9 hPa 0,0 l/m 0 min 2 min 0 W/m 23,0 km/h (4 Bft)
10.12.2014 05:56 4,7 C 2,8 C 87 % 1015,9 hPa 0,0 l/m 0 min 2 min 0 W/m 18,8 km/h (3 Bft)
10.12.2014 05:58 4,7 C 2,8 C 88 % 1015,8 hPa 0,0 l/m 0 min 2 min 0 W/m 12,6 km/h (3 Bft)
10.12.2014 06:00 4,7 C 2,8 C 88 % 1015,8 hPa 0,0 l/m 0 min 2 min 0 W/m 23,0 km/h (4 Bft)
10.12.2014 06:02 4,7 C 2,8 C 88 % 1015,8 hPa 0,2 l/m 0 min 2 min 0 W/m 20,9 km/h (4 Bft)
10.12.2014 06:05 4,7 C 2,8 C 88 % 1015,6 hPa 0,0 l/m 0 min 2 min 0 W/m 20,9 km/h (4 Bft)
10.12.2014 06:08 4,6 C 2,8 C 89 % 1015,6 hPa 0,0 l/m 0 min 0 min 0 W/m 20,9 km/h (4 Bft)
10.12.2014 06:10 4,6 C 2,8 C 89 % 1015,7 hPa 0,0 l/m 0 min 0 min 0 W/m 18,8 km/h (3 Bft)
10.12.2014 06:12 4,6 C 2,8 C 89 % 1015,7 hPa 0,0 l/m 0 min 2 min 0 W/m 20,9 km/h (4 Bft)
10.12.2014 06:14 4,6 C 2,8 C 89 % 1015,5 hPa 0,0 l/m 0 min 2 min 0 W/m 23,0 km/h (4 Bft)
10.12.2014 06:16 4,6 C 2,8 C 89 % 1015,4 hPa 0,0 l/m 0 min 2 min 0 W/m 29,3 km/h (5 Bft)
10.12.2014 06:18 4,6 C 2,8 C 90 % 1015,5 hPa 0,0 l/m 0 min 2 min 0 W/m 37,7 km/h (5 Bft)
10.12.2014 06:20 4,6 C 2,8 C 90 % 1015,6 hPa 0,0 l/m 0 min 2 min 0 W/m 29,3 km/h (5 Bft)
10.12.2014 06:22 4,6 C 2,8 C 90 % 1015,6 hPa 0,0 l/m 0 min 2 min 0 W/m 18,8 km/h (3 Bft)
10.12.2014 06:24 4,7 C 2,8 C 90 % 1015,5 hPa 0,0 l/m 0 min 2 min 0 W/m 20,9 km/h (4 Bft)
10.12.2014 06:26 4,6 C 2,8 C 90 % 1015,4 hPa 0,2 l/m 0 min 2 min 0 W/m 25,1 km/h (4 Bft)
10.12.2014 06:28 4,7 C 2,8 C 91 % 1015,4 hPa 0,0 l/m 0 min 2 min 0 W/m 33,5 km/h (5 Bft)
10.12.2014 06:30 4,7 C 2,8 C 91 % 1015,3 hPa 0,0 l/m 0 min 2 min 0 W/m 14,6 km/h (3 Bft)
10.12.2014 06:32 4,7 C 2,8 C 91 % 1015,2 hPa 0,0 l/m 0 min 2 min 0 W/m 35,6 km/h (5 Bft)
10.12.2014 06:34 4,7 C 2,8 C 91 % 1015,3 hPa 0,0 l/m 0 min 2 min 0 W/m 29,3 km/h (5 Bft)
10.12.2014 06:36 4,7 C 2,8 C 91 % 1015,3 hPa 0,0 l/m 0 min 2 min 0 W/m 25,1 km/h (4 Bft)
10.12.2014 06:38 4,7 C 2,8 C 91 % 1015,3 hPa 0,0 l/m 0 min 2 min 0 W/m 25,1 km/h (4 Bft)
10.12.2014 06:40 4,7 C 3,3 C 92 % 1015,3 hPa 0,0 l/m 0 min 2 min 0 W/m 31,4 km/h (5 Bft)
10.12.2014 06:42 4,7 C 3,3 C 92 % 1015,3 hPa 0,2 l/m 0 min 2 min 0 W/m 23,0 km/h (4 Bft)
10.12.2014 06:44 4,7 C 3,3 C 92 % 1015,3 hPa 0,0 l/m 0 min 2 min 0 W/m 27,2 km/h (4 Bft)
10.12.2014 06:46 4,8 C 3,3 C 92 % 1015,3 hPa 0,0 l/m 0 min 2 min 0 W/m 23,0 km/h (4 Bft)
10.12.2014 06:48 4,8 C 3,3 C 92 % 1015,2 hPa 0,2 l/m 0 min 2 min 0 W/m 25,1 km/h (4 Bft)
10.12.2014 06:50 4,8 C 3,3 C 92 % 1015,2 hPa 0,0 l/m 0 min 2 min 0 W/m 18,8 km/h (3 Bft)
10.12.2014 06:52 4,8 C 3,3 C 93 % 1015,3 hPa 0,0 l/m 0 min 2 min 0 W/m 27,2 km/h (4 Bft)
10.12.2014 06:54 4,8 C 3,3 C 93 % 1015,3 hPa 0,0 l/m 0 min 2 min 0 W/m 41,8 km/h (6 Bft)
10.12.2014 06:56 4,8 C 3,3 C 93 % 1015,3 hPa 0,0 l/m 0 min 2 min 0 W/m 29,3 km/h (5 Bft)
10.12.2014 06:58 4,8 C 3,3 C 93 % 1015,2 hPa 0,0 l/m 0 min 2 min 0 W/m 25,1 km/h (4 Bft)
10.12.2014 07:00 4,8 C 3,3 C 93 % 1015,2 hPa 0,0 l/m 0 min 2 min 0 W/m 29,3 km/h (5 Bft)
10.12.2014 07:02 4,8 C 3,3 C 93 % 1015,2 hPa 0,2 l/m 0 min 2 min 0 W/m 18,8 km/h (3 Bft)
10.12.2014 07:04 4,8 C 3,3 C 93 % 1015,1 hPa 0,0 l/m 0 min 2 min 0 W/m 25,1 km/h (4 Bft)
10.12.2014 07:06 4,8 C 3,3 C 93 % 1015,2 hPa 0,0 l/m 0 min 2 min 0 W/m 31,4 km/h (5 Bft)
10.12.2014 07:08 4,8 C 3,3 C 93 % 1015,1 hPa 0,2 l/m 0 min 2 min 0 W/m 29,3 km/h (5 Bft)
10.12.2014 07:10 4,8 C 3,3 C 93 % 1015,1 hPa 0,0 l/m 0 min 2 min 0 W/m 29,3 km/h (5 Bft)
10.12.2014 07:12 4,8 C 3,3 C 94 % 1015,1 hPa 0,0 l/m 0 min 2 min 0 W/m 29,3 km/h (5 Bft)
10.12.2014 07:14 4,8 C 3,3 C 94 % 1015,1 hPa 0,0 l/m 0 min 2 min 0 W/m 33,5 km/h (5 Bft)
10.12.2014 07:16 4,9 C 3,3 C 94 % 1015,1 hPa 0,2 l/m 0 min 2 min 0 W/m 31,4 km/h (5 Bft)
10.12.2014 07:18 4,9 C 3,3 C 94 % 1015,1 hPa 0,0 l/m 0 min 2 min 0 W/m 23,0 km/h (4 Bft)
10.12.2014 07:20 4,9 C 3,3 C 94 % 1015,1 hPa 0,0 l/m 0 min 2 min 0 W/m 37,7 km/h (5 Bft)
10.12.2014 07:22 4,9 C 3,3 C 94 % 1015,0 hPa 0,0 l/m 0 min 2 min 0 W/m 20,9 km/h (4 Bft)
10.12.2014 07:24 4,9 C 3,3 C 94 % 1015,0 hPa 0,0 l/m 0 min 2 min 0 W/m 27,2 km/h (4 Bft)
10.12.2014 07:26 4,9 C 3,3 C 94 % 1014,9 hPa 0,2 l/m 0 min 2 min 0 W/m 27,2 km/h (4 Bft)
10.12.2014 07:28 4,9 C 3,3 C 94 % 1014,9 hPa 0,0 l/m 0 min 2 min 0 W/m 31,4 km/h (5 Bft)
10.12.2014 07:30 4,9 C 3,3 C 94 % 1014,7 hPa 0,0 l/m 0 min 2 min 0 W/m 29,3 km/h (5 Bft)
10.12.2014 07:32 4,9 C 3,3 C 95 % 1014,7 hPa 0,0 l/m 0 min 2 min 0 W/m 29,3 km/h (5 Bft)
10.12.2014 07:34 4,9 C 3,3 C 95 % 1014,7 hPa 0,0 l/m 0 min 2 min 0 W/m 29,3 km/h (5 Bft)
10.12.2014 07:36 4,9 C 3,3 C 95 % 1014,7 hPa 0,0 l/m 0 min 2 min 0 W/m 25,1 km/h (4 Bft)
10.12.2014 07:38 4,9 C 3,3 C 95 % 1014,7 hPa 0,0 l/m 0 min 2 min 0 W/m 27,2 km/h (4 Bft)
10.12.2014 07:40 5,0 C 3,3 C 95 % 1014,6 hPa 0,0 l/m 0 min 0 min 0 W/m 23,0 km/h (4 Bft)
10.12.2014 07:42 5,0 C 3,9 C 95 % 1014,7 hPa 0,0 l/m 0 min 0 min 0 W/m 29,3 km/h (5 Bft)
10.12.2014 07:44 5,0 C 3,9 C 95 % 1014,6 hPa 0,0 l/m 0 min 0 min 0 W/m 23,0 km/h (4 Bft)
10.12.2014 07:46 5,0 C 3,9 C 95 % 1014,6 hPa 0,0 l/m 0 min 0 min 0 W/m 39,7 km/h (6 Bft)
10.12.2014 07:48 5,1 C 3,9 C 95 % 1014,6 hPa 0,0 l/m 0 min 0 min 0 W/m 31,4 km/h (5 Bft)
10.12.2014 07:50 5,1 C 3,9 C 95 % 1014,5 hPa 0,0 l/m 0 min 0 min 0 W/m 27,2 km/h (4 Bft)
10.12.2014 07:52 5,1 C 3,9 C 95 % 1014,6 hPa 0,0 l/m 0 min 0 min 0 W/m 39,7 km/h (6 Bft)
10.12.2014 07:54 5,1 C 3,9 C 95 % 1014,6 hPa 0,0 l/m 0 min 0 min 0 W/m 31,4 km/h (5 Bft)
10.12.2014 07:56 5,1 C 3,9 C 95 % 1014,6 hPa 0,0 l/m 0 min 0 min 0 W/m 23,0 km/h (4 Bft)
10.12.2014 07:58 5,1 C 3,9 C 95 % 1014,5 hPa 0,0 l/m 0 min 0 min 0 W/m 29,3 km/h (5 Bft)
10.12.2014 08:00 5,1 C 3,9 C 95 % 1014,6 hPa 0,0 l/m 0 min 0 min 0 W/m 29,3 km/h (5 Bft)
10.12.2014 08:02 5,2 C 3,9 C 96 % 1014,5 hPa 0,0 l/m 0 min 0 min 0 W/m 31,4 km/h (5 Bft)
10.12.2014 08:04 5,2 C 3,9 C 95 % 1014,6 hPa 0,0 l/m 0 min 0 min 0 W/m 27,2 km/h (4 Bft)
10.12.2014 08:06 5,2 C 3,9 C 95 % 1014,5 hPa 0,0 l/m 0 min 0 min 0 W/m 31,4 km/h (5 Bft)
10.12.2014 08:08 5,2 C 3,9 C 95 % 1014,6 hPa 0,0 l/m 0 min 0 min 0 W/m 25,1 km/h (4 Bft)
10.12.2014 08:10 5,2 C 3,9 C 96 % 1014,6 hPa 0,0 l/m 0 min 0 min 0 W/m 35,6 km/h (5 Bft)
10.12.2014 08:12 5,2 C 3,9 C 96 % 1014,6 hPa 0,0 l/m 0 min 0 min 0 W/m 33,5 km/h (5 Bft)
10.12.2014 08:14 5,2 C 3,9 C 96 % 1014,6 hPa 0,0 l/m 0 min 0 min 0 W/m 31,4 km/h (5 Bft)
10.12.2014 08:16 5,3 C 3,9 C 96 % 1014,5 hPa 0,0 l/m 0 min 0 min 0 W/m 33,5 km/h (5 Bft)
10.12.2014 08:18 5,3 C 3,9 C 96 % 1014,6 hPa 0,0 l/m 0 min 0 min 0 W/m 31,4 km/h (5 Bft)
10.12.2014 08:20 5,3 C 3,9 C 96 % 1014,5 hPa 0,0 l/m 0 min 0 min 0 W/m 33,5 km/h (5 Bft)
10.12.2014 08:22 5,3 C 3,9 C 96 % 1014,4 hPa 0,0 l/m 0 min 0 min 0 W/m 25,1 km/h (4 Bft)
10.12.2014 08:24 5,3 C 3,9 C 96 % 1014,5 hPa 0,0 l/m 0 min 0 min 0 W/m 25,1 km/h (4 Bft)
10.12.2014 08:26 5,3 C 3,9 C 96 % 1014,4 hPa 0,0 l/m 0 min 0 min 0 W/m 27,2 km/h (4 Bft)
10.12.2014 08:28 5,4 C 3,9 C 96 % 1014,4 hPa 0,0 l/m 0 min 0 min 0 W/m 29,3 km/h (5 Bft)
10.12.2014 08:30 5,4 C 3,9 C 96 % 1014,4 hPa 0,0 l/m 0 min 0 min 0 W/m 37,7 km/h (5 Bft)
10.12.2014 08:32 5,4 C 3,9 C 96 % 1014,4 hPa 0,0 l/m 0 min 0 min 0 W/m 20,9 km/h (4 Bft)
10.12.2014 08:34 5,4 C 3,9 C 96 % 1014,4 hPa 0,0 l/m 0 min 0 min 0 W/m 27,2 km/h (4 Bft)
10.12.2014 08:36 5,4 C 3,9 C 96 % 1014,4 hPa 0,0 l/m 0 min 0 min 0 W/m 31,4 km/h (5 Bft)
10.12.2014 08:38 5,4 C 3,9 C 96 % 1014,5 hPa 0,0 l/m 0 min 0 min 0 W/m 27,2 km/h (4 Bft)
10.12.2014 08:40 5,5 C 3,9 C 96 % 1014,3 hPa 0,0 l/m 0 min 0 min 0 W/m 33,5 km/h (5 Bft)
10.12.2014 08:42 5,5 C 3,9 C 96 % 1014,4 hPa 0,0 l/m 0 min 0 min 0 W/m 35,6 km/h (5 Bft)
10.12.2014 08:44 5,5 C 3,9 C 96 % 1014,3 hPa 0,0 l/m 0 min 0 min 0 W/m 29,3 km/h (5 Bft)
10.12.2014 08:46 5,5 C 3,9 C 96 % 1014,3 hPa 0,0 l/m 0 min 0 min 0 W/m 35,6 km/h (5 Bft)
10.12.2014 08:48 5,6 C 3,9 C 96 % 1014,3 hPa 0,0 l/m 0 min 0 min 0 W/m 31,4 km/h (5 Bft)
10.12.2014 08:50 5,6 C 3,9 C 96 % 1014,4 hPa 0,0 l/m 0 min 0 min 0 W/m 20,9 km/h (4 Bft)
10.12.2014 08:52 5,6 C 4,4 C 96 % 1014,3 hPa 0,0 l/m 0 min 0 min 0 W/m 31,4 km/h (5 Bft)
10.12.2014 08:54 5,6 C 4,4 C 96 % 1014,4 hPa 0,0 l/m 0 min 0 min 0 W/m 31,4 km/h (5 Bft)
10.12.2014 08:56 5,7 C 4,4 C 96 % 1014,3 hPa 0,0 l/m 0 min 0 min 4 W/m 37,7 km/h (5 Bft)
10.12.2014 08:58 5,7 C 4,4 C 96 % 1014,5 hPa 0,0 l/m 0 min 0 min 4 W/m 33,5 km/h (5 Bft)
10.12.2014 09:00 5,7 C 4,4 C 96 % 1014,5 hPa 0,0 l/m 0 min 0 min 0 W/m 50,2 km/h (7 Bft)
10.12.2014 09:02 5,7 C 4,4 C 96 % 1014,4 hPa 0,0 l/m 0 min 0 min 4 W/m 35,6 km/h (5 Bft)
10.12.2014 09:04 5,7 C 4,4 C 96 % 1014,4 hPa 0,0 l/m 0 min 0 min 2 W/m 29,3 km/h (5 Bft)
10.12.2014 09:06 5,7 C 4,4 C 96 % 1014,7 hPa 0,0 l/m 0 min 2 min 1 W/m 41,8 km/h (6 Bft)
10.12.2014 09:08 5,8 C 4,4 C 96 % 1014,7 hPa 0,0 l/m 0 min 0 min 5 W/m 35,6 km/h (5 Bft)
10.12.2014 09:10 5,8 C 4,4 C 96 % 1014,8 hPa 0,2 l/m 0 min 0 min 7 W/m 35,6 km/h (5 Bft)
10.12.2014 09:12 5,8 C 4,4 C 96 % 1014,7 hPa 0,0 l/m 0 min 2 min 7 W/m 29,3 km/h (5 Bft)
10.12.2014 09:14 5,8 C 4,4 C 96 % 1014,6 hPa 0,0 l/m 0 min 2 min 7 W/m 29,3 km/h (5 Bft)
10.12.2014 09:16 5,8 C 4,4 C 96 % 1014,7 hPa 0,0 l/m 0 min 2 min 11 W/m 23,0 km/h (4 Bft)
10.12.2014 09:18 5,8 C 4,4 C 96 % 1014,7 hPa 0,0 l/m 0 min 0 min 8 W/m 33,5 km/h (5 Bft)
10.12.2014 09:20 5,8 C 4,4 C 96 % 1014,9 hPa 0,0 l/m 0 min 0 min 6 W/m 25,1 km/h (4 Bft)
10.12.2014 09:22 5,8 C 4,4 C 96 % 1015,0 hPa 0,0 l/m 0 min 0 min 8 W/m 29,3 km/h (5 Bft)
10.12.2014 09:24 5,8 C 4,4 C 96 % 1014,9 hPa 0,0 l/m 0 min 2 min 8 W/m 27,2 km/h (4 Bft)
10.12.2014 09:26 5,8 C 4,4 C 96 % 1014,9 hPa 0,0 l/m 0 min 2 min 6 W/m 37,7 km/h (5 Bft)
10.12.2014 09:28 5,8 C 4,4 C 96 % 1014,9 hPa 0,2 l/m 0 min 2 min 2 W/m 37,7 km/h (5 Bft)
10.12.2014 09:30 5,8 C 4,4 C 96 % 1014,9 hPa 0,0 l/m 0 min 2 min 0 W/m 35,6 km/h (5 Bft)
10.12.2014 09:32 5,8 C 4,4 C 96 % 1014,9 hPa 0,0 l/m 0 min 2 min 0 W/m 33,5 km/h (5 Bft)
10.12.2014 09:34 5,8 C 4,4 C 96 % 1015,0 hPa 0,0 l/m 0 min 2 min 0 W/m 37,7 km/h (5 Bft)
10.12.2014 09:36 5,8 C 4,4 C 96 % 1014,8 hPa 0,0 l/m 0 min 2 min 0 W/m 35,6 km/h (5 Bft)
10.12.2014 09:38 5,8 C 4,4 C 96 % 1015,1 hPa 0,0 l/m 0 min 2 min 0 W/m 27,2 km/h (4 Bft)
10.12.2014 09:40 5,8 C 4,4 C 96 % 1015,1 hPa 0,0 l/m 0 min 0 min 0 W/m 18,8 km/h (3 Bft)
10.12.2014 09:42 5,8 C 4,4 C 96 % 1015,1 hPa 0,0 l/m 0 min 0 min 0 W/m 35,6 km/h (5 Bft)
10.12.2014 09:44 5,8 C 4,4 C 96 % 1015,2 hPa 0,0 l/m 0 min 0 min 0 W/m 33,5 km/h (5 Bft)
10.12.2014 09:46 5,8 C 4,4 C 96 % 1015,2 hPa 0,0 l/m 0 min 0 min 0 W/m 27,2 km/h (4 Bft)
10.12.2014 09:48 5,8 C 4,4 C 96 % 1015,2 hPa 0,0 l/m 0 min 0 min 0 W/m 27,2 km/h (4 Bft)
10.12.2014 09:50 5,8 C 4,4 C 96 % 1015,2 hPa 0,0 l/m 0 min 0 min 0 W/m 27,2 km/h (4 Bft)
10.12.2014 09:52 5,8 C 4,4 C 96 % 1015,0 hPa 0,0 l/m 0 min 0 min 0 W/m 31,4 km/h (5 Bft)
10.12.2014 09:54 5,9 C 4,4 C 96 % 1015,2 hPa 0,0 l/m 0 min 0 min 4 W/m 33,5 km/h (5 Bft)
10.12.2014 09:56 5,9 C 4,4 C 96 % 1015,2 hPa 0,0 l/m 0 min 2 min 8 W/m 55,8 km/h (7 Bft)
10.12.2014 09:58 5,9 C 4,4 C 96 % 1015,2 hPa 0,0 l/m 0 min 0 min 8 W/m 50,2 km/h (7 Bft)
10.12.2014 10:00 5,8 C 4,4 C 96 % 1015,3 hPa 0,0 l/m 0 min 0 min 9 W/m 37,7 km/h (5 Bft)
10.12.2014 10:02 5,8 C 4,4 C 96 % 1015,3 hPa 0,0 l/m 0 min 0 min 12 W/m 31,4 km/h (5 Bft)
10.12.2014 10:04 5,8 C 4,4 C 96 % 1015,3 hPa 0,0 l/m 0 min 0 min 17 W/m 41,8 km/h (6 Bft)
10.12.2014 10:06 5,8 C 4,4 C 96 % 1015,2 hPa 0,0 l/m 0 min 0 min 21 W/m 33,5 km/h (5 Bft)
10.12.2014 10:08 5,8 C 4,4 C 96 % 1015,3 hPa 0,0 l/m 0 min 0 min 18 W/m 31,4 km/h (5 Bft)
10.12.2014 10:10 5,8 C 4,4 C 96 % 1015,3 hPa 0,0 l/m 0 min 0 min 20 W/m 39,7 km/h (6 Bft)
10.12.2014 10:12 5,8 C 4,4 C 96 % 1015,2 hPa 0,0 l/m 0 min 0 min 18 W/m 33,5 km/h (5 Bft)
10.12.2014 10:14 5,8 C 4,4 C 96 % 1015,3 hPa 0,0 l/m 0 min 0 min 18 W/m 35,6 km/h (5 Bft)
10.12.2014 10:16 5,8 C 4,4 C 96 % 1015,2 hPa 0,0 l/m 0 min 0 min 19 W/m 35,6 km/h (5 Bft)
10.12.2014 10:18 5,8 C 4,4 C 96 % 1015,3 hPa 0,0 l/m 0 min 0 min 18 W/m 27,2 km/h (4 Bft)
10.12.2014 10:20 5,8 C 4,4 C 96 % 1015,3 hPa 0,0 l/m 0 min 0 min 15 W/m 35,6 km/h (5 Bft)
10.12.2014 10:22 5,8 C 4,4 C 96 % 1015,3 hPa 0,0 l/m 0 min 0 min 17 W/m 29,3 km/h (5 Bft)
10.12.2014 10:24 5,8 C 4,4 C 96 % 1015,2 hPa 0,0 l/m 0 min 0 min 19 W/m 33,5 km/h (5 Bft)
10.12.2014 10:26 5,8 C 4,4 C 96 % 1015,1 hPa 0,0 l/m 0 min 0 min 15 W/m 37,7 km/h (5 Bft)
10.12.2014 10:28 5,8 C 4,4 C 96 % 1015,3 hPa 0,0 l/m 0 min 0 min 14 W/m 35,6 km/h (5 Bft)
10.12.2014 10:30 5,8 C 4,4 C 96 % 1015,2 hPa 0,0 l/m 0 min 0 min 18 W/m 41,8 km/h (6 Bft)
10.12.2014 10:32 5,9 C 4,4 C 96 % 1015,2 hPa 0,0 l/m 0 min 0 min 23 W/m 35,6 km/h (5 Bft)
10.12.2014 10:34 5,9 C 4,4 C 96 % 1015,1 hPa 0,0 l/m 0 min 0 min 36 W/m 31,4 km/h (5 Bft)
10.12.2014 10:36 5,9 C 4,4 C 96 % 1015,0 hPa 0,0 l/m 0 min 0 min 42 W/m 27,2 km/h (4 Bft)
10.12.2014 10:38 5,9 C 4,4 C 96 % 1015,1 hPa 0,0 l/m 0 min 0 min 39 W/m 31,4 km/h (5 Bft)
10.12.2014 10:40 5,9 C 4,4 C 96 % 1015,0 hPa 0,0 l/m 0 min 0 min 37 W/m 31,4 km/h (5 Bft)
10.12.2014 10:42 5,9 C 4,4 C 96 % 1015,0 hPa 0,0 l/m 0 min 0 min 32 W/m 35,6 km/h (5 Bft)
10.12.2014 10:44 5,9 C 4,4 C 96 % 1015,0 hPa 0,0 l/m 0 min 0 min 44 W/m 31,4 km/h (5 Bft)
10.12.2014 10:46 5,9 C 4,4 C 96 % 1015,1 hPa 0,0 l/m 0 min 0 min 46 W/m 20,9 km/h (4 Bft)
10.12.2014 10:48 5,9 C 4,4 C 96 % 1015,0 hPa 0,0 l/m 0 min 0 min 40 W/m 39,7 km/h (6 Bft)
10.12.2014 10:50 5,9 C 4,4 C 96 % 1015,0 hPa 0,0 l/m 0 min 0 min 52 W/m 33,5 km/h (5 Bft)
10.12.2014 10:52 5,9 C 4,4 C 96 % 1015,1 hPa 0,0 l/m 0 min 0 min 40 W/m 35,6 km/h (5 Bft)
10.12.2014 10:54 5,9 C 4,4 C 96 % 1015,1 hPa 0,0 l/m 0 min 0 min 31 W/m 33,5 km/h (5 Bft)
10.12.2014 10:56 5,9 C 4,4 C 96 % 1015,0 hPa 0,0 l/m 0 min 0 min 25 W/m 29,3 km/h (5 Bft)
10.12.2014 10:58 5,9 C 4,4 C 96 % 1015,1 hPa 0,0 l/m 0 min 0 min 20 W/m 37,7 km/h (5 Bft)
10.12.2014 11:00 5,9 C 4,4 C 96 % 1015,2 hPa 0,0 l/m 0 min 0 min 21 W/m 37,7 km/h (5 Bft)
10.12.2014 11:02 5,9 C 4,4 C 96 % 1015,2 hPa 0,0 l/m 0 min 0 min 16 W/m 31,4 km/h (5 Bft)
10.12.2014 11:04 5,9 C 4,4 C 96 % 1015,3 hPa 0,0 l/m 0 min 0 min 18 W/m 37,7 km/h (5 Bft)
10.12.2014 11:06 5,9 C 4,4 C 96 % 1015,3 hPa 0,0 l/m 0 min 2 min 18 W/m 35,6 km/h (5 Bft)
10.12.2014 11:08 5,9 C 4,4 C 96 % 1015,3 hPa 0,0 l/m 0 min 2 min 22 W/m 29,3 km/h (5 Bft)
10.12.2014 11:10 5,9 C 4,4 C 96 % 1015,2 hPa 0,0 l/m 0 min 0 min 16 W/m 25,1 km/h (4 Bft)
10.12.2014 11:12 5,9 C 4,4 C 96 % 1015,3 hPa 0,0 l/m 0 min 0 min 24 W/m 23,0 km/h (4 Bft)
10.12.2014 11:14 5,9 C 4,4 C 96 % 1015,3 hPa 0,0 l/m 0 min 0 min 26 W/m 27,2 km/h (4 Bft)
10.12.2014 11:16 5,9 C 4,4 C 96 % 1015,3 hPa 0,0 l/m 0 min 0 min 36 W/m 33,5 km/h (5 Bft)
10.12.2014 11:18 5,9 C 4,4 C 96 % 1015,2 hPa 0,0 l/m 0 min 0 min 47 W/m 27,2 km/h (4 Bft)
10.12.2014 11:20 6,0 C 4,4 C 96 % 1015,2 hPa 0,0 l/m 0 min 0 min 60 W/m 23,0 km/h (4 Bft)
10.12.2014 11:22 6,0 C 4,4 C 96 % 1015,3 hPa 0,0 l/m 0 min 0 min 62 W/m 27,2 km/h (4 Bft)
10.12.2014 11:24 6,1 C 5,0 C 96 % 1015,3 hPa 0,0 l/m 0 min 0 min 83 W/m 25,1 km/h (4 Bft)
10.12.2014 11:26 6,1 C 5,0 C 96 % 1015,3 hPa 0,0 l/m 0 min 0 min 96 W/m 27,2 km/h (4 Bft)
10.12.2014 11:28 6,1 C 5,0 C 96 % 1015,3 hPa 0,0 l/m 0 min 0 min 102 W/m 33,5 km/h (5 Bft)
10.12.2014 11:30 6,1 C 5,0 C 96 % 1015,4 hPa 0,0 l/m 0 min 0 min 88 W/m 29,3 km/h (5 Bft)
10.12.2014 11:32 6,2 C 5,0 C 96 % 1015,3 hPa 0,0 l/m 0 min 0 min 92 W/m 20,9 km/h (4 Bft)
10.12.2014 11:34 6,2 C 5,0 C 96 % 1015,3 hPa 0,0 l/m 0 min 0 min 100 W/m 31,4 km/h (5 Bft)
10.12.2014 11:36 6,2 C 5,0 C 96 % 1015,3 hPa 0,0 l/m 0 min 0 min 115 W/m 23,0 km/h (4 Bft)
10.12.2014 11:38 6,3 C 5,0 C 96 % 1015,4 hPa 0,0 l/m 0 min 0 min 107 W/m 25,1 km/h (4 Bft)
10.12.2014 11:40 6,3 C 5,0 C 96 % 1015,3 hPa 0,0 l/m 0 min 0 min 111 W/m 27,2 km/h (4 Bft)
10.12.2014 11:42 6,4 C 5,0 C 96 % 1015,3 hPa 0,0 l/m 0 min 0 min 102 W/m 27,2 km/h (4 Bft)
10.12.2014 11:44 6,4 C 5,0 C 96 % 1015,3 hPa 0,0 l/m 0 min 0 min 89 W/m 25,1 km/h (4 Bft)
10.12.2014 11:46 6,4 C 5,0 C 96 % 1015,3 hPa 0,0 l/m 0 min 0 min 79 W/m 27,2 km/h (4 Bft)
10.12.2014 11:48 6,4 C 5,0 C 96 % 1015,3 hPa 0,0 l/m 0 min 0 min 72 W/m 33,5 km/h (5 Bft)
10.12.2014 11:50 6,4 C 5,0 C 96 % 1015,3 hPa 0,0 l/m 0 min 0 min 72 W/m 23,0 km/h (4 Bft)
10.12.2014 11:52 6,4 C 5,0 C 96 % 1015,3 hPa 0,0 l/m 0 min 0 min 65 W/m 25,1 km/h (4 Bft)
10.12.2014 11:54 6,4 C 5,0 C 96 % 1015,3 hPa 0,0 l/m 0 min 0 min 85 W/m 31,4 km/h (5 Bft)
10.12.2014 11:56 6,4 C 5,0 C 96 % 1015,3 hPa 0,0 l/m 0 min 0 min 103 W/m 31,4 km/h (5 Bft)
10.12.2014 11:58 6,4 C 5,0 C 96 % 1015,4 hPa 0,0 l/m 0 min 0 min 118 W/m 29,3 km/h (5 Bft)
10.12.2014 12:00 6,5 C 5,0 C 96 % 1015,3 hPa 0,0 l/m 2 min 0 min 204 W/m 27,2 km/h (4 Bft)
10.12.2014 12:02 6,6 C 5,0 C 96 % 1015,4 hPa 0,0 l/m 0 min 0 min 133 W/m 27,2 km/h (4 Bft)
10.12.2014 12:05 6,6 C 5,0 C 96 % 1015,2 hPa 0,0 l/m 0 min 0 min 67 W/m 33,5 km/h (5 Bft)
10.12.2014 12:08 6,6 C 5,0 C 96 % 1015,2 hPa 0,0 l/m 0 min 0 min 95 W/m 33,5 km/h (5 Bft)
10.12.2014 12:10 6,7 C 5,0 C 96 % 1015,2 hPa 0,0 l/m 0 min 0 min 70 W/m 27,2 km/h (4 Bft)
10.12.2014 12:12 6,7 C 5,0 C 96 % 1015,2 hPa 0,0 l/m 0 min 0 min 73 W/m 25,1 km/h (4 Bft)
10.12.2014 12:14 6,7 C 5,0 C 96 % 1015,1 hPa 0,0 l/m 0 min 0 min 114 W/m 33,5 km/h (5 Bft)
10.12.2014 12:16 6,7 C 5,0 C 96 % 1015,2 hPa 0,0 l/m 2 min 0 min 177 W/m 31,4 km/h (5 Bft)
10.12.2014 12:18 6,8 C 5,0 C 96 % 1015,1 hPa 0,0 l/m 2 min 0 min 175 W/m 25,1 km/h (4 Bft)
10.12.2014 12:20 6,8 C 5,0 C 96 % 1015,0 hPa 0,0 l/m 2 min 0 min 211 W/m 25,1 km/h (4 Bft)
10.12.2014 12:22 6,9 C 5,0 C 95 % 1015,1 hPa 0,0 l/m 0 min 0 min 91 W/m 23,0 km/h (4 Bft)
10.12.2014 12:24 6,9 C 5,6 C 96 % 1015,1 hPa 0,0 l/m 2 min 0 min 220 W/m 39,7 km/h (6 Bft)
10.12.2014 12:26 7,0 C 5,6 C 96 % 1015,0 hPa 0,0 l/m 2 min 0 min 216 W/m 37,7 km/h (5 Bft)
10.12.2014 12:28 7,1 C 5,6 C 96 % 1015,1 hPa 0,0 l/m 2 min 0 min 227 W/m 29,3 km/h (5 Bft)
10.12.2014 12:30 7,2 C 5,6 C 95 % 1015,1 hPa 0,0 l/m 2 min 0 min 194 W/m 33,5 km/h (5 Bft)
10.12.2014 12:32 7,2 C 5,6 C 95 % 1015,1 hPa 0,0 l/m 2 min 0 min 222 W/m 29,3 km/h (5 Bft)
10.12.2014 12:34 7,3 C 5,6 C 95 % 1015,2 hPa 0,0 l/m 2 min 0 min 213 W/m 31,4 km/h (5 Bft)
10.12.2014 12:36 7,3 C 5,6 C 95 % 1015,2 hPa 0,0 l/m 0 min 0 min 110 W/m 31,4 km/h (5 Bft)
10.12.2014 12:38 7,4 C 5,6 C 95 % 1015,2 hPa 0,0 l/m 2 min 0 min 249 W/m 29,3 km/h (5 Bft)
10.12.2014 12:40 7,4 C 5,6 C 95 % 1015,1 hPa 0,0 l/m 0 min 0 min 90 W/m 23,0 km/h (4 Bft)
10.12.2014 12:42 7,4 C 5,6 C 95 % 1015,2 hPa 0,0 l/m 2 min 0 min 191 W/m 25,1 km/h (4 Bft)
10.12.2014 12:44 7,5 C 5,6 C 95 % 1015,1 hPa 0,0 l/m 2 min 0 min 197 W/m 27,2 km/h (4 Bft)
10.12.2014 12:46 7,5 C 5,6 C 95 % 1015,0 hPa 0,0 l/m 2 min 0 min 211 W/m 27,2 km/h (4 Bft)
10.12.2014 12:48 7,6 C 5,6 C 94 % 1015,1 hPa 0,0 l/m 2 min 0 min 183 W/m 35,6 km/h (5 Bft)
10.12.2014 12:50 7,6 C 5,6 C 94 % 1015,1 hPa 0,0 l/m 0 min 0 min 92 W/m 31,4 km/h (5 Bft)
10.12.2014 12:52 7,6 C 5,6 C 94 % 1015,0 hPa 0,0 l/m 0 min 0 min 68 W/m 23,0 km/h (4 Bft)
10.12.2014 12:54 7,6 C 5,6 C 94 % 1015,0 hPa 0,0 l/m 0 min 0 min 66 W/m 25,1 km/h (4 Bft)
10.12.2014 12:56 7,6 C 5,6 C 94 % 1015,0 hPa 0,0 l/m 0 min 0 min 49 W/m 20,9 km/h (4 Bft)
10.12.2014 12:58 7,6 C 5,6 C 94 % 1014,9 hPa 0,0 l/m 0 min 0 min 36 W/m 20,9 km/h (4 Bft)
10.12.2014 13:00 7,6 C 5,6 C 93 % 1015,0 hPa 0,0 l/m 0 min 0 min 46 W/m 23,0 km/h (4 Bft)
10.12.2014 13:02 7,6 C 5,6 C 93 % 1014,9 hPa 0,0 l/m 0 min 0 min 62 W/m 23,0 km/h (4 Bft)
10.12.2014 13:04 7,6 C 5,6 C 93 % 1014,9 hPa 0,0 l/m 0 min 0 min 70 W/m 27,2 km/h (4 Bft)
10.12.2014 13:06 7,6 C 6,1 C 93 % 1015,0 hPa 0,0 l/m 0 min 0 min 112 W/m 25,1 km/h (4 Bft)
10.12.2014 13:08 7,7 C 6,1 C 93 % 1015,0 hPa 0,0 l/m 2 min 0 min 161 W/m 25,1 km/h (4 Bft)
10.12.2014 13:10 7,7 C 6,1 C 93 % 1014,9 hPa 0,0 l/m 0 min 0 min 116 W/m 20,9 km/h (4 Bft)
10.12.2014 13:12 7,8 C 6,1 C 93 % 1014,9 hPa 0,0 l/m 0 min 0 min 98 W/m 20,9 km/h (4 Bft)
10.12.2014 13:14 7,8 C 6,1 C 93 % 1014,9 hPa 0,0 l/m 2 min 0 min 167 W/m 29,3 km/h (5 Bft)
10.12.2014 13:16 7,8 C 6,1 C 93 % 1014,9 hPa 0,0 l/m 2 min 0 min 152 W/m 31,4 km/h (5 Bft)
10.12.2014 13:18 7,9 C 6,1 C 93 % 1014,9 hPa 0,0 l/m 2 min 0 min 135 W/m 29,3 km/h (5 Bft)
10.12.2014 13:20 7,9 C 6,1 C 92 % 1014,9 hPa 0,0 l/m 2 min 0 min 132 W/m 23,0 km/h (4 Bft)
10.12.2014 13:22 7,9 C 6,1 C 92 % 1014,8 hPa 0,0 l/m 2 min 0 min 154 W/m 37,7 km/h (5 Bft)
10.12.2014 13:24 8,0 C 6,7 C 92 % 1014,8 hPa 0,0 l/m 2 min 0 min 244 W/m 27,2 km/h (4 Bft)
10.12.2014 13:26 8,1 C 6,7 C 92 % 1014,8 hPa 0,0 l/m 2 min 0 min 244 W/m 23,0 km/h (4 Bft)
10.12.2014 13:28 8,2 C 6,7 C 91 % 1014,8 hPa 0,0 l/m 2 min 0 min 246 W/m 29,3 km/h (5 Bft)
10.12.2014 13:30 8,2 C 6,7 C 91 % 1014,8 hPa 0,0 l/m 2 min 0 min 232 W/m 33,5 km/h (5 Bft)
10.12.2014 13:32 8,3 C 6,7 C 91 % 1014,9 hPa 0,0 l/m 2 min 0 min 180 W/m 31,4 km/h (5 Bft)
10.12.2014 13:34 8,3 C 6,1 C 90 % 1014,8 hPa 0,0 l/m 2 min 0 min 182 W/m 31,4 km/h (5 Bft)
10.12.2014 13:36 8,3 C 6,1 C 90 % 1014,9 hPa 0,0 l/m 0 min 0 min 122 W/m 31,4 km/h (5 Bft)
10.12.2014 13:38 8,4 C 6,1 C 89 % 1014,8 hPa 0,0 l/m 2 min 0 min 163 W/m 35,6 km/h (5 Bft)
10.12.2014 13:40 8,4 C 6,1 C 89 % 1014,8 hPa 0,0 l/m 2 min 0 min 170 W/m 29,3 km/h (5 Bft)
10.12.2014 13:42 8,4 C 6,1 C 88 % 1014,9 hPa 0,0 l/m 2 min 0 min 197 W/m 25,1 km/h (4 Bft)
10.12.2014 13:44 8,4 C 6,1 C 88 % 1014,9 hPa 0,0 l/m 2 min 0 min 211 W/m 27,2 km/h (4 Bft)
10.12.2014 13:46 8,4 C 6,1 C 88 % 1014,9 hPa 0,0 l/m 2 min 0 min 192 W/m 23,0 km/h (4 Bft)
10.12.2014 13:48 8,4 C 6,1 C 87 % 1014,9 hPa 0,0 l/m 2 min 0 min 189 W/m 27,2 km/h (4 Bft)
10.12.2014 13:50 8,4 C 6,1 C 87 % 1014,8 hPa 0,0 l/m 0 min 0 min 112 W/m 39,7 km/h (6 Bft)
10.12.2014 13:52 8,4 C 6,1 C 87 % 1014,8 hPa 0,0 l/m 0 min 0 min 88 W/m 31,4 km/h (5 Bft)
10.12.2014 13:54 8,4 C 6,1 C 86 % 1014,9 hPa 0,0 l/m 2 min 0 min 145 W/m 29,3 km/h (5 Bft)
10.12.2014 13:56 8,4 C 6,1 C 86 % 1014,9 hPa 0,0 l/m 2 min 0 min 161 W/m 18,8 km/h (3 Bft)
10.12.2014 13:58 8,4 C 6,1 C 86 % 1014,9 hPa 0,0 l/m 2 min 0 min 149 W/m 25,1 km/h (4 Bft)
10.12.2014 14:00 8,5 C 6,1 C 86 % 1014,9 hPa 0,0 l/m 2 min 0 min 170 W/m 23,0 km/h (4 Bft)
10.12.2014 14:02 8,5 C 6,1 C 86 % 1014,9 hPa 0,0 l/m 2 min 0 min 137 W/m 29,3 km/h (5 Bft)
10.12.2014 14:04 8,5 C 6,1 C 86 % 1014,9 hPa 0,0 l/m 2 min 0 min 156 W/m 23,0 km/h (4 Bft)
10.12.2014 14:06 8,5 C 6,1 C 86 % 1014,9 hPa 0,0 l/m 2 min 0 min 135 W/m 29,3 km/h (5 Bft)
10.12.2014 14:08 8,5 C 6,1 C 85 % 1014,9 hPa 0,0 l/m 2 min 0 min 146 W/m 31,4 km/h (5 Bft)
10.12.2014 14:10 8,5 C 6,1 C 85 % 1014,9 hPa 0,0 l/m 2 min 0 min 150 W/m 29,3 km/h (5 Bft)
10.12.2014 14:12 8,4 C 6,1 C 85 % 1015,0 hPa 0,0 l/m 2 min 0 min 139 W/m 27,2 km/h (4 Bft)
10.12.2014 14:14 8,4 C 6,1 C 85 % 1015,0 hPa 0,0 l/m 2 min 0 min 143 W/m 25,1 km/h (4 Bft)
10.12.2014 14:16 8,4 C 6,1 C 84 % 1015,0 hPa 0,0 l/m 2 min 0 min 141 W/m 25,1 km/h (4 Bft)
10.12.2014 14:18 8,4 C 6,1 C 84 % 1015,0 hPa 0,0 l/m 2 min 0 min 138 W/m 20,9 km/h (4 Bft)
10.12.2014 14:20 8,4 C 6,1 C 84 % 1015,0 hPa 0,0 l/m 2 min 0 min 133 W/m 18,8 km/h (3 Bft)
10.12.2014 14:22 8,4 C 6,1 C 83 % 1015,0 hPa 0,0 l/m 2 min 0 min 130 W/m 23,0 km/h (4 Bft)
10.12.2014 14:24 8,4 C 6,1 C 83 % 1015,0 hPa 0,0 l/m 2 min 0 min 127 W/m 25,1 km/h (4 Bft)
10.12.2014 14:26 8,4 C 6,1 C 83 % 1015,1 hPa 0,0 l/m 2 min 0 min 123 W/m 25,1 km/h (4 Bft)
10.12.2014 14:28 8,4 C 6,1 C 83 % 1015,0 hPa 0,0 l/m 2 min 0 min 120 W/m 31,4 km/h (5 Bft)
10.12.2014 14:30 8,4 C 6,1 C 82 % 1015,1 hPa 0,0 l/m 2 min 0 min 117 W/m 31,4 km/h (5 Bft)
10.12.2014 14:32 8,4 C 6,1 C 82 % 1015,0 hPa 0,0 l/m 2 min 0 min 116 W/m 27,2 km/h (4 Bft)
10.12.2014 14:34 8,4 C 6,1 C 82 % 1015,1 hPa 0,0 l/m 2 min 0 min 112 W/m 27,2 km/h (4 Bft)
10.12.2014 14:36 8,4 C 6,1 C 81 % 1015,0 hPa 0,0 l/m 2 min 0 min 111 W/m 29,3 km/h (5 Bft)
10.12.2014 14:38 8,3 C 6,1 C 81 % 1015,0 hPa 0,0 l/m 2 min 0 min 111 W/m 25,1 km/h (4 Bft)
10.12.2014 14:40 8,3 C 6,1 C 81 % 1015,0 hPa 0,0 l/m 2 min 0 min 112 W/m 27,2 km/h (4 Bft)
10.12.2014 14:42 8,3 C 6,1 C 81 % 1015,1 hPa 0,0 l/m 2 min 0 min 113 W/m 27,2 km/h (4 Bft)
10.12.2014 14:44 8,3 C 6,1 C 81 % 1015,1 hPa 0,0 l/m 2 min 0 min 108 W/m 23,0 km/h (4 Bft)
10.12.2014 14:46 8,3 C 5,6 C 81 % 1015,0 hPa 0,0 l/m 2 min 0 min 97 W/m 16,7 km/h (3 Bft)
10.12.2014 14:48 8,2 C 5,6 C 81 % 1015,0 hPa 0,0 l/m 2 min 0 min 91 W/m 23,0 km/h (4 Bft)
10.12.2014 14:50 8,2 C 5,6 C 81 % 1015,0 hPa 0,0 l/m 2 min 0 min 87 W/m 14,6 km/h (3 Bft)
10.12.2014 14:52 8,2 C 5,6 C 81 % 1014,9 hPa 0,0 l/m 2 min 0 min 85 W/m 23,0 km/h (4 Bft)
10.12.2014 14:54 8,2 C 5,6 C 81 % 1015,0 hPa 0,0 l/m 2 min 0 min 83 W/m 16,7 km/h (3 Bft)
10.12.2014 14:56 8,2 C 5,6 C 82 % 1015,0 hPa 0,0 l/m 2 min 0 min 80 W/m 20,9 km/h (4 Bft)
10.12.2014 14:58 8,2 C 5,6 C 81 % 1015,0 hPa 0,0 l/m 2 min 0 min 77 W/m 25,1 km/h (4 Bft)
10.12.2014 15:00 8,2 C 5,6 C 81 % 1015,0 hPa 0,0 l/m 0 min 0 min 74 W/m 18,8 km/h (3 Bft)
10.12.2014 15:02 8,2 C 5,6 C 82 % 1015,0 hPa 0,0 l/m 0 min 0 min 71 W/m 23,0 km/h (4 Bft)
10.12.2014 15:04 8,1 C 5,6 C 82 % 1015,0 hPa 0,0 l/m 0 min 0 min 68 W/m 18,8 km/h (3 Bft)
10.12.2014 15:06 8,1 C 5,6 C 82 % 1015,0 hPa 0,0 l/m 0 min 0 min 64 W/m 20,9 km/h (4 Bft)
10.12.2014 15:08 8,1 C 5,6 C 82 % 1015,0 hPa 0,0 l/m 0 min 0 min 62 W/m 25,1 km/h (4 Bft)
10.12.2014 15:10 8,1 C 5,6 C 82 % 1015,0 hPa 0,0 l/m 0 min 0 min 59 W/m 20,9 km/h (4 Bft)
10.12.2014 15:12 8,1 C 5,6 C 82 % 1015,0 hPa 0,0 l/m 0 min 0 min 55 W/m 23,0 km/h (4 Bft)
10.12.2014 15:14 8,0 C 5,6 C 81 % 1015,0 hPa 0,0 l/m 0 min 0 min 53 W/m 20,9 km/h (4 Bft)
10.12.2014 15:16 7,9 C 5,6 C 81 % 1015,1 hPa 0,0 l/m 0 min 0 min 49 W/m 25,1 km/h (4 Bft)
10.12.2014 15:18 7,9 C 5,6 C 81 % 1015,1 hPa 0,0 l/m 0 min 0 min 47 W/m 29,3 km/h (5 Bft)
10.12.2014 15:20 7,9 C 5,6 C 81 % 1015,1 hPa 0,0 l/m 0 min 0 min 44 W/m 25,1 km/h (4 Bft)
10.12.2014 15:22 7,9 C 5,6 C 81 % 1015,1 hPa 0,0 l/m 0 min 0 min 42 W/m 18,8 km/h (3 Bft)
10.12.2014 15:24 7,8 C 5,6 C 81 % 1015,1 hPa 0,0 l/m 0 min 0 min 40 W/m 16,7 km/h (3 Bft)
10.12.2014 15:26 7,8 C 5,0 C 81 % 1015,1 hPa 0,0 l/m 0 min 0 min 39 W/m 14,6 km/h (3 Bft)
10.12.2014 15:28 7,8 C 5,0 C 82 % 1015,1 hPa 0,0 l/m 0 min 0 min 37 W/m 16,7 km/h (3 Bft)
10.12.2014 15:30 7,8 C 5,0 C 82 % 1015,1 hPa 0,0 l/m 0 min 0 min 35 W/m 16,7 km/h (3 Bft)
10.12.2014 15:32 7,7 C 5,0 C 82 % 1015,1 hPa 0,0 l/m 0 min 0 min 34 W/m 16,7 km/h (3 Bft)
10.12.2014 15:34 7,7 C 5,0 C 82 % 1015,2 hPa 0,0 l/m 0 min 0 min 33 W/m 14,6 km/h (3 Bft)
10.12.2014 15:36 7,7 C 5,0 C 82 % 1015,1 hPa 0,0 l/m 0 min 0 min 28 W/m 16,7 km/h (3 Bft)
10.12.2014 15:38 7,7 C 5,0 C 82 % 1015,1 hPa 0,0 l/m 0 min 0 min 29 W/m 18,8 km/h (3 Bft)
10.12.2014 15:40 7,6 C 5,0 C 82 % 1015,1 hPa 0,0 l/m 0 min 0 min 32 W/m 18,8 km/h (3 Bft)
10.12.2014 15:42 7,6 C 5,0 C 82 % 1015,1 hPa 0,0 l/m 0 min 0 min 33 W/m 23,0 km/h (4 Bft)
10.12.2014 15:44 7,6 C 5,0 C 82 % 1015,2 hPa 0,0 l/m 0 min 0 min 33 W/m 14,6 km/h (3 Bft)
10.12.2014 15:46 7,6 C 5,0 C 82 % 1015,2 hPa 0,0 l/m 0 min 0 min 33 W/m 23,0 km/h (4 Bft)
10.12.2014 15:48 7,5 C 5,0 C 82 % 1015,1 hPa 0,0 l/m 0 min 0 min 31 W/m 14,6 km/h (3 Bft)
10.12.2014 15:50 7,5 C 5,0 C 82 % 1015,1 hPa 0,0 l/m 0 min 0 min 26 W/m 20,9 km/h (4 Bft)
10.12.2014 15:52 7,5 C 5,0 C 82 % 1015,1 hPa 0,0 l/m 0 min 0 min 23 W/m 16,7 km/h (3 Bft)
10.12.2014 15:54 7,4 C 5,0 C 82 % 1015,1 hPa 0,0 l/m 0 min 0 min 19 W/m 18,8 km/h (3 Bft)
10.12.2014 15:56 7,4 C 5,0 C 82 % 1015,0 hPa 0,0 l/m 0 min 0 min 18 W/m 10,5 km/h (2 Bft)
10.12.2014 15:58 7,4 C 5,0 C 82 % 1015,1 hPa 0,0 l/m 0 min 0 min 16 W/m 16,7 km/h (3 Bft)
10.12.2014 16:00 7,3 C 5,0 C 82 % 1015,1 hPa 0,0 l/m 0 min 0 min 14 W/m 14,6 km/h (3 Bft)
10.12.2014 16:02 7,3 C 4,4 C 82 % 1015,2 hPa 0,0 l/m 0 min 0 min 14 W/m 12,6 km/h (3 Bft)
10.12.2014 16:04 7,3 C 4,4 C 82 % 1015,2 hPa 0,0 l/m 0 min 0 min 14 W/m 12,6 km/h (3 Bft)
10.12.2014 16:06 7,3 C 4,4 C 82 % 1015,2 hPa 0,0 l/m 0 min 0 min 13 W/m 10,5 km/h (2 Bft)
10.12.2014 16:08 7,2 C 4,4 C 82 % 1015,2 hPa 0,0 l/m 0 min 0 min 12 W/m 14,6 km/h (3 Bft)
10.12.2014 16:10 7,2 C 4,4 C 82 % 1015,2 hPa 0,0 l/m 0 min 0 min 12 W/m 12,6 km/h (3 Bft)
10.12.2014 16:12 7,2 C 4,4 C 82 % 1015,2 hPa 0,0 l/m 0 min 0 min 11 W/m 10,5 km/h (2 Bft)
10.12.2014 16:14 7,1 C 4,4 C 82 % 1015,2 hPa 0,0 l/m 0 min 0 min 11 W/m 12,6 km/h (3 Bft)
10.12.2014 16:16 7,1 C 4,4 C 82 % 1015,3 hPa 0,0 l/m 0 min 0 min 10 W/m 8,4 km/h (2 Bft)
10.12.2014 16:18 7,1 C 4,4 C 83 % 1015,3 hPa 0,0 l/m 0 min 0 min 9 W/m 8,4 km/h (2 Bft)
10.12.2014 16:20 7,1 C 4,4 C 83 % 1015,2 hPa 0,0 l/m 0 min 0 min 9 W/m 8,4 km/h (2 Bft)
10.12.2014 16:22 7,0 C 3,9 C 83 % 1015,3 hPa 0,0 l/m 0 min 0 min 8 W/m 8,4 km/h (2 Bft)
10.12.2014 16:24 6,9 C 3,9 C 82 % 1015,2 hPa 0,0 l/m 0 min 0 min 7 W/m 8,4 km/h (2 Bft)
10.12.2014 16:26 6,9 C 3,9 C 83 % 1015,2 hPa 0,0 l/m 0 min 0 min 6 W/m 6,3 km/h (2 Bft)
10.12.2014 16:28 6,9 C 3,9 C 83 % 1015,2 hPa 0,0 l/m 0 min 0 min 5 W/m 12,6 km/h (3 Bft)
10.12.2014 16:30 6,8 C 3,9 C 83 % 1015,2 hPa 0,0 l/m 0 min 0 min 5 W/m 10,5 km/h (2 Bft)
10.12.2014 16:32 6,8 C 3,9 C 83 % 1015,2 hPa 0,0 l/m 0 min 0 min 5 W/m 10,5 km/h (2 Bft)
10.12.2014 16:34 6,8 C 3,9 C 83 % 1015,2 hPa 0,0 l/m 0 min 0 min 3 W/m 14,6 km/h (3 Bft)
10.12.2014 16:36 6,7 C 3,9 C 83 % 1015,2 hPa 0,0 l/m 0 min 0 min 0 W/m 12,6 km/h (3 Bft)
10.12.2014 16:38 6,7 C 3,9 C 83 % 1015,2 hPa 0,0 l/m 0 min 0 min 0 W/m 12,6 km/h (3 Bft)
10.12.2014 16:40 6,6 C 3,9 C 83 % 1015,3 hPa 0,0 l/m 0 min 0 min 0 W/m 14,6 km/h (3 Bft)
10.12.2014 16:42 6,6 C 3,9 C 83 % 1015,3 hPa 0,0 l/m 0 min 0 min 0 W/m 16,7 km/h (3 Bft)
10.12.2014 16:44 6,5 C 3,9 C 83 % 1015,3 hPa 0,0 l/m 0 min 0 min 0 W/m 14,6 km/h (3 Bft)
10.12.2014 16:46 6,4 C 3,9 C 83 % 1015,3 hPa 0,0 l/m 0 min 0 min 0 W/m 16,7 km/h (3 Bft)
10.12.2014 16:48 6,4 C 3,9 C 83 % 1015,3 hPa 0,0 l/m 0 min 0 min 0 W/m 18,8 km/h (3 Bft)
10.12.2014 16:50 6,4 C 3,9 C 83 % 1015,3 hPa 0,0 l/m 0 min 0 min 0 W/m 16,7 km/h (3 Bft)
10.12.2014 16:52 6,3 C 3,9 C 83 % 1015,2 hPa 0,0 l/m 0 min 0 min 0 W/m 18,8 km/h (3 Bft)
10.12.2014 16:54 6,3 C 4,4 C 83 % 1015,2 hPa 0,0 l/m 0 min 0 min 0 W/m 20,9 km/h (4 Bft)
10.12.2014 16:56 6,2 C 4,4 C 83 % 1015,1 hPa 0,0 l/m 0 min 0 min 0 W/m 18,8 km/h (3 Bft)
10.12.2014 16:58 6,2 C 4,4 C 83 % 1015,1 hPa 0,0 l/m 0 min 0 min 0 W/m 18,8 km/h (3 Bft)
10.12.2014 17:00 6,2 C 4,4 C 83 % 1015,1 hPa 0,0 l/m 0 min 0 min 0 W/m 23,0 km/h (4 Bft)
10.12.2014 17:02 6,2 C 4,4 C 83 % 1015,1 hPa 0,0 l/m 0 min 0 min 0 W/m 20,9 km/h (4 Bft)
10.12.2014 17:04 6,2 C 4,4 C 83 % 1015,1 hPa 0,0 l/m 0 min 0 min 0 W/m 18,8 km/h (3 Bft)
10.12.2014 17:06 6,2 C 4,4 C 83 % 1015,1 hPa 0,0 l/m 0 min 0 min 0 W/m 18,8 km/h (3 Bft)
10.12.2014 17:08 6,3 C 4,4 C 83 % 1015,1 hPa 0,0 l/m 0 min 0 min 0 W/m 16,7 km/h (3 Bft)
10.12.2014 17:10 6,3 C 4,4 C 83 % 1015,1 hPa 0,0 l/m 0 min 0 min 0 W/m 20,9 km/h (4 Bft)
10.12.2014 17:12 6,3 C 4,4 C 83 % 1015,1 hPa 0,0 l/m 0 min 0 min 0 W/m 20,9 km/h (4 Bft)
10.12.2014 17:14 6,3 C 4,4 C 83 % 1015,0 hPa 0,0 l/m 0 min 0 min 0 W/m 35,6 km/h (5 Bft)
10.12.2014 17:16 6,4 C 5,0 C 82 % 1015,1 hPa 0,0 l/m 0 min 0 min 0 W/m 29,3 km/h (5 Bft)
10.12.2014 17:18 6,4 C 5,0 C 82 % 1015,1 hPa 0,0 l/m 0 min 0 min 0 W/m 25,1 km/h (4 Bft)
10.12.2014 17:20 6,5 C 5,0 C 82 % 1015,2 hPa 0,0 l/m 0 min 0 min 0 W/m 31,4 km/h (5 Bft)
10.12.2014 17:22 6,6 C 5,0 C 82 % 1015,2 hPa 0,0 l/m 0 min 0 min 0 W/m 20,9 km/h (4 Bft)
10.12.2014 17:24 6,6 C 5,0 C 81 % 1015,2 hPa 0,0 l/m 0 min 0 min 0 W/m 18,8 km/h (3 Bft)
10.12.2014 17:26 6,6 C 4,4 C 81 % 1015,1 hPa 0,0 l/m 0 min 0 min 0 W/m 14,6 km/h (3 Bft)
10.12.2014 17:28 6,6 C 4,4 C 81 % 1015,1 hPa 0,0 l/m 0 min 0 min 0 W/m 20,9 km/h (4 Bft)
10.12.2014 17:30 6,6 C 4,4 C 81 % 1015,2 hPa 0,0 l/m 0 min 0 min 0 W/m 23,0 km/h (4 Bft)
10.12.2014 17:32 6,6 C 4,4 C 81 % 1015,2 hPa 0,0 l/m 0 min 0 min 0 W/m 18,8 km/h (3 Bft)
10.12.2014 17:34 6,6 C 4,4 C 81 % 1015,3 hPa 0,0 l/m 0 min 0 min 0 W/m 18,8 km/h (3 Bft)
10.12.2014 17:36 6,6 C 4,4 C 81 % 1015,4 hPa 0,0 l/m 0 min 0 min 0 W/m 18,8 km/h (3 Bft)
10.12.2014 17:38 6,6 C 4,4 C 80 % 1015,4 hPa 0,0 l/m 0 min 0 min 0 W/m 20,9 km/h (4 Bft)
10.12.2014 17:40 6,6 C 4,4 C 80 % 1015,4 hPa 0,0 l/m 0 min 0 min 0 W/m 16,7 km/h (3 Bft)
10.12.2014 17:42 6,6 C 4,4 C 80 % 1015,5 hPa 0,0 l/m 0 min 0 min 0 W/m 12,6 km/h (3 Bft)
10.12.2014 17:44 6,6 C 4,4 C 80 % 1015,5 hPa 0,0 l/m 0 min 0 min 0 W/m 12,6 km/h (3 Bft)
10.12.2014 17:46 6,6 C 4,4 C 80 % 1015,5 hPa 0,0 l/m 0 min 0 min 0 W/m 14,6 km/h (3 Bft)
10.12.2014 17:48 6,6 C 4,4 C 80 % 1015,5 hPa 0,0 l/m 0 min 0 min 0 W/m 10,5 km/h (2 Bft)
10.12.2014 17:50 6,6 C 4,4 C 81 % 1015,5 hPa 0,0 l/m 0 min 0 min 0 W/m 14,6 km/h (3 Bft)
10.12.2014 17:52 6,6 C 4,4 C 81 % 1015,5 hPa 0,0 l/m 0 min 0 min 0 W/m 14,6 km/h (3 Bft)
10.12.2014 17:54 6,6 C 4,4 C 80 % 1015,4 hPa 0,0 l/m 0 min 0 min 0 W/m 14,6 km/h (3 Bft)
10.12.2014 17:56 6,6 C 4,4 C 80 % 1015,4 hPa 0,0 l/m 0 min 0 min 0 W/m 16,7 km/h (3 Bft)
10.12.2014 17:58 6,6 C 3,9 C 80 % 1015,4 hPa 0,0 l/m 0 min 0 min 0 W/m 16,7 km/h (3 Bft)
10.12.2014 18:00 6,5 C 3,9 C 80 % 1015,5 hPa 0,0 l/m 0 min 0 min 0 W/m 20,9 km/h (4 Bft)
10.12.2014 18:02 6,4 C 3,9 C 80 % 1015,5 hPa 0,0 l/m 0 min 0 min 0 W/m 18,8 km/h (3 Bft)
10.12.2014 18:05 6,4 C 3,9 C 80 % 1015,4 hPa 0,0 l/m 0 min 0 min 0 W/m 18,8 km/h (3 Bft)
10.12.2014 18:06 6,4 C 3,9 C 80 % 1015,4 hPa 0,0 l/m 0 min 0 min 0 W/m 18,8 km/h (3 Bft)
10.12.2014 18:08 6,3 C 3,9 C 80 % 1015,3 hPa 0,0 l/m 0 min 0 min 0 W/m 14,6 km/h (3 Bft)
10.12.2014 18:10 6,3 C 3,9 C 80 % 1015,3 hPa 0,0 l/m 0 min 0 min 0 W/m 14,6 km/h (3 Bft)
10.12.2014 18:12 6,2 C 3,9 C 80 % 1015,3 hPa 0,0 l/m 0 min 0 min 0 W/m 14,6 km/h (3 Bft)
10.12.2014 18:14 6,2 C 3,9 C 80 % 1015,4 hPa 0,0 l/m 0 min 0 min 0 W/m 14,6 km/h (3 Bft)
10.12.2014 18:16 6,1 C 3,9 C 80 % 1015,4 hPa 0,0 l/m 0 min 0 min 0 W/m 12,6 km/h (3 Bft)
10.12.2014 18:18 6,1 C 3,3 C 80 % 1015,4 hPa 0,0 l/m 0 min 0 min 0 W/m 12,6 km/h (3 Bft)
10.12.2014 18:20 6,1 C 3,3 C 80 % 1015,5 hPa 0,0 l/m 0 min 0 min 0 W/m 10,5 km/h (2 Bft)
10.12.2014 18:22 6,0 C 3,3 C 80 % 1015,4 hPa 0,0 l/m 0 min 0 min 0 W/m 10,5 km/h (2 Bft)
10.12.2014 18:24 6,0 C 3,3 C 80 % 1015,4 hPa 0,0 l/m 0 min 0 min 0 W/m 12,6 km/h (3 Bft)
10.12.2014 18:26 5,9 C 3,3 C 80 % 1015,3 hPa 0,0 l/m 0 min 0 min 0 W/m 14,6 km/h (3 Bft)
10.12.2014 18:28 5,9 C 3,3 C 80 % 1015,3 hPa 0,0 l/m 0 min 0 min 0 W/m 8,4 km/h (2 Bft)
10.12.2014 18:30 5,8 C 3,3 C 81 % 1015,3 hPa 0,0 l/m 0 min 0 min 0 W/m 10,5 km/h (2 Bft)
10.12.2014 18:32 5,8 C 3,3 C 81 % 1015,2 hPa 0,0 l/m 0 min 0 min 0 W/m 10,5 km/h (2 Bft)
10.12.2014 18:34 5,7 C 2,8 C 81 % 1015,2 hPa 0,0 l/m 0 min 0 min 0 W/m 8,4 km/h (2 Bft)
10.12.2014 18:36 5,7 C 2,8 C 81 % 1015,2 hPa 0,0 l/m 0 min 0 min 0 W/m 8,4 km/h (2 Bft)
10.12.2014 18:38 5,7 C 2,8 C 81 % 1015,1 hPa 0,0 l/m 0 min 0 min 0 W/m 12,6 km/h (3 Bft)
10.12.2014 18:40 5,6 C 2,8 C 81 % 1015,1 hPa 0,0 l/m 0 min 0 min 0 W/m 12,6 km/h (3 Bft)
10.12.2014 18:42 5,6 C 2,8 C 81 % 1015,1 hPa 0,0 l/m 0 min 0 min 0 W/m 14,6 km/h (3 Bft)
10.12.2014 18:44 5,5 C 2,8 C 81 % 1015,2 hPa 0,0 l/m 0 min 0 min 0 W/m 14,6 km/h (3 Bft)
10.12.2014 18:46 5,4 C 2,8 C 81 % 1015,2 hPa 0,0 l/m 0 min 0 min 0 W/m 8,4 km/h (2 Bft)
10.12.2014 18:48 5,4 C 2,8 C 82 % 1015,3 hPa 0,0 l/m 0 min 0 min 0 W/m 10,5 km/h (2 Bft)
10.12.2014 18:50 5,4 C 2,8 C 82 % 1015,2 hPa 0,0 l/m 0 min 0 min 0 W/m 6,3 km/h (2 Bft)
10.12.2014 18:52 5,3 C 2,8 C 82 % 1015,2 hPa 0,0 l/m 0 min 0 min 0 W/m 8,4 km/h (2 Bft)
10.12.2014 18:54 5,3 C 2,8 C 82 % 1015,3 hPa 0,0 l/m 0 min 0 min 0 W/m 12,6 km/h (3 Bft)
10.12.2014 18:56 5,2 C 2,8 C 82 % 1015,3 hPa 0,0 l/m 0 min 0 min 0 W/m 12,6 km/h (3 Bft)
10.12.2014 18:58 5,2 C 2,8 C 82 % 1015,3 hPa 0,0 l/m 0 min 0 min 0 W/m 10,5 km/h (2 Bft)
10.12.2014 19:00 5,2 C 2,8 C 82 % 1015,3 hPa 0,0 l/m 0 min 0 min 0 W/m 8,4 km/h (2 Bft)
10.12.2014 19:02 5,1 C 2,2 C 82 % 1015,3 hPa 0,0 l/m 0 min 0 min 0 W/m 8,4 km/h (2 Bft)
10.12.2014 19:04 5,1 C 2,2 C 82 % 1015,2 hPa 0,0 l/m 0 min 0 min 0 W/m 10,5 km/h (2 Bft)
10.12.2014 19:06 5,1 C 2,2 C 82 % 1015,2 hPa 0,0 l/m 0 min 0 min 0 W/m 10,5 km/h (2 Bft)
10.12.2014 19:08 4,9 C 2,8 C 82 % 1015,2 hPa 0,0 l/m 0 min 0 min 0 W/m 14,6 km/h (3 Bft)
10.12.2014 19:10 4,9 C 2,2 C 83 % 1015,2 hPa 0,0 l/m 0 min 0 min 0 W/m 10,5 km/h (2 Bft)
10.12.2014 19:12 4,9 C 2,2 C 83 % 1015,2 hPa 0,0 l/m 0 min 0 min 0 W/m 10,5 km/h (2 Bft)
10.12.2014 19:14 4,9 C 2,2 C 83 % 1015,1 hPa 0,0 l/m 0 min 0 min 0 W/m 14,6 km/h (3 Bft)
10.12.2014 19:16 4,8 C 2,8 C 83 % 1015,1 hPa 0,0 l/m 0 min 0 min 0 W/m 10,5 km/h (2 Bft)
10.12.2014 19:18 4,8 C 2,8 C 83 % 1015,2 hPa 0,0 l/m 0 min 0 min 0 W/m 10,5 km/h (2 Bft)
10.12.2014 19:20 4,8 C 2,8 C 83 % 1015,2 hPa 0,0 l/m 0 min 0 min 0 W/m 10,5 km/h (2 Bft)
10.12.2014 19:22 4,7 C 2,8 C 83 % 1015,1 hPa 0,0 l/m 0 min 0 min 0 W/m 12,6 km/h (3 Bft)
10.12.2014 19:24 4,7 C 2,8 C 83 % 1015,2 hPa 0,0 l/m 0 min 0 min 0 W/m 18,8 km/h (3 Bft)
10.12.2014 19:26 4,7 C 2,8 C 83 % 1015,1 hPa 0,0 l/m 0 min 0 min 0 W/m 10,5 km/h (2 Bft)
10.12.2014 19:28 4,7 C 2,8 C 84 % 1015,0 hPa 0,0 l/m 0 min 0 min 0 W/m 14,6 km/h (3 Bft)
10.12.2014 19:30 4,7 C 2,8 C 84 % 1015,0 hPa 0,0 l/m 0 min 0 min 0 W/m 12,6 km/h (3 Bft)
10.12.2014 19:32 4,6 C 2,8 C 84 % 1015,1 hPa 0,0 l/m 0 min 0 min 0 W/m 14,6 km/h (3 Bft)
10.12.2014 19:34 4,6 C 2,8 C 84 % 1015,0 hPa 0,0 l/m 0 min 0 min 0 W/m 14,6 km/h (3 Bft)
10.12.2014 19:36 4,6 C 2,8 C 84 % 1015,0 hPa 0,0 l/m 0 min 0 min 0 W/m 12,6 km/h (3 Bft)
10.12.2014 19:38 4,6 C 2,8 C 84 % 1015,0 hPa 0,0 l/m 0 min 0 min 0 W/m 14,6 km/h (3 Bft)
10.12.2014 19:40 4,6 C 2,8 C 84 % 1015,0 hPa 0,0 l/m 0 min 0 min 0 W/m 14,6 km/h (3 Bft)
10.12.2014 19:42 4,6 C 2,8 C 84 % 1015,0 hPa 0,0 l/m 0 min 0 min 0 W/m 12,6 km/h (3 Bft)
10.12.2014 19:44 4,6 C 2,8 C 84 % 1015,0 hPa 0,0 l/m 0 min 0 min 0 W/m 10,5 km/h (2 Bft)
10.12.2014 19:46 4,6 C 2,8 C 84 % 1015,0 hPa 0,0 l/m 0 min 0 min 0 W/m 14,6 km/h (3 Bft)
10.12.2014 19:48 4,6 C 2,8 C 84 % 1015,0 hPa 0,0 l/m 0 min 0 min 0 W/m 10,5 km/h (2 Bft)
10.12.2014 19:50 4,5 C 2,8 C 84 % 1015,0 hPa 0,0 l/m 0 min 0 min 0 W/m 12,6 km/h (3 Bft)
10.12.2014 19:52 4,5 C 2,8 C 84 % 1015,0 hPa 0,0 l/m 0 min 0 min 0 W/m 10,5 km/h (2 Bft)
10.12.2014 19:54 4,5 C 2,2 C 84 % 1015,0 hPa 0,0 l/m 0 min 0 min 0 W/m 12,6 km/h (3 Bft)
10.12.2014 19:56 4,5 C 2,2 C 84 % 1015,0 hPa 0,0 l/m 0 min 0 min 0 W/m 10,5 km/h (2 Bft)
10.12.2014 19:58 4,4 C 2,2 C 84 % 1015,0 hPa 0,0 l/m 0 min 0 min 0 W/m 10,5 km/h (2 Bft)
10.12.2014 20:00 4,4 C 2,2 C 84 % 1015,1 hPa 0,0 l/m 0 min 0 min 0 W/m 14,6 km/h (3 Bft)
10.12.2014 20:02 4,4 C 2,2 C 84 % 1015,1 hPa 0,0 l/m 0 min 0 min 0 W/m 14,6 km/h (3 Bft)
10.12.2014 20:04 4,4 C 2,2 C 84 % 1015,1 hPa 0,0 l/m 0 min 0 min 0 W/m 14,6 km/h (3 Bft)
10.12.2014 20:06 4,4 C 2,2 C 84 % 1015,0 hPa 0,0 l/m 0 min 0 min 0 W/m 16,7 km/h (3 Bft)
10.12.2014 20:08 4,3 C 2,2 C 84 % 1015,0 hPa 0,0 l/m 0 min 0 min 0 W/m 14,6 km/h (3 Bft)
10.12.2014 20:10 4,3 C 2,2 C 84 % 1015,0 hPa 0,0 l/m 0 min 0 min 0 W/m 16,7 km/h (3 Bft)
10.12.2014 20:12 4,3 C 2,2 C 84 % 1015,1 hPa 0,0 l/m 0 min 0 min 0 W/m 10,5 km/h (2 Bft)
10.12.2014 20:14 4,3 C 2,2 C 84 % 1015,0 hPa 0,0 l/m 0 min 0 min 0 W/m 14,6 km/h (3 Bft)
10.12.2014 20:16 4,3 C 2,8 C 84 % 1015,1 hPa 0,0 l/m 0 min 0 min 0 W/m 16,7 km/h (3 Bft)
10.12.2014 20:18 4,3 C 2,2 C 84 % 1015,1 hPa 0,0 l/m 0 min 0 min 0 W/m 16,7 km/h (3 Bft)
10.12.2014 20:20 4,3 C 2,8 C 84 % 1015,0 hPa 0,0 l/m 0 min 0 min 0 W/m 18,8 km/h (3 Bft)
10.12.2014 20:22 4,3 C 2,8 C 84 % 1015,0 hPa 0,0 l/m 0 min 0 min 0 W/m 14,6 km/h (3 Bft)
10.12.2014 20:24 4,3 C 2,8 C 84 % 1015,0 hPa 0,0 l/m 0 min 0 min 0 W/m 20,9 km/h (4 Bft)
10.12.2014 20:26 4,3 C 2,8 C 84 % 1015,0 hPa 0,0 l/m 0 min 0 min 0 W/m 23,0 km/h (4 Bft)
10.12.2014 20:28 4,3 C 2,8 C 84 % 1014,9 hPa 0,0 l/m 0 min 0 min 0 W/m 20,9 km/h (4 Bft)
10.12.2014 20:30 4,3 C 2,8 C 84 % 1014,9 hPa 0,0 l/m 0 min 0 min 0 W/m 20,9 km/h (4 Bft)
10.12.2014 20:32 4,3 C 2,8 C 84 % 1014,8 hPa 0,0 l/m 0 min 0 min 0 W/m 14,6 km/h (3 Bft)
10.12.2014 20:34 4,3 C 2,8 C 84 % 1014,8 hPa 0,0 l/m 0 min 0 min 0 W/m 16,7 km/h (3 Bft)
10.12.2014 20:36 4,3 C 2,8 C 84 % 1014,9 hPa 0,0 l/m 0 min 0 min 0 W/m 16,7 km/h (3 Bft)
10.12.2014 20:38 4,3 C 2,8 C 84 % 1014,9 hPa 0,0 l/m 0 min 0 min 0 W/m 20,9 km/h (4 Bft)
10.12.2014 20:40 4,3 C 2,8 C 84 % 1014,9 hPa 0,0 l/m 0 min 0 min 0 W/m 23,0 km/h (4 Bft)
10.12.2014 20:42 4,3 C 2,8 C 84 % 1015,0 hPa 0,0 l/m 0 min 0 min 0 W/m 18,8 km/h (3 Bft)
10.12.2014 20:44 4,3 C 2,8 C 84 % 1014,9 hPa 0,0 l/m 0 min 0 min 0 W/m 20,9 km/h (4 Bft)
10.12.2014 20:46 4,3 C 2,8 C 84 % 1014,9 hPa 0,0 l/m 0 min 0 min 0 W/m 18,8 km/h (3 Bft)
10.12.2014 20:48 4,3 C 2,8 C 84 % 1014,9 hPa 0,0 l/m 0 min 0 min 0 W/m 16,7 km/h (3 Bft)
10.12.2014 20:50 4,3 C 2,8 C 84 % 1014,9 hPa 0,0 l/m 0 min 0 min 0 W/m 16,7 km/h (3 Bft)
10.12.2014 20:52 4,3 C 2,2 C 84 % 1014,9 hPa 0,0 l/m 0 min 0 min 0 W/m 18,8 km/h (3 Bft)
10.12.2014 20:54 4,3 C 2,8 C 84 % 1014,8 hPa 0,0 l/m 0 min 0 min 0 W/m 16,7 km/h (3 Bft)
10.12.2014 20:56 4,3 C 2,8 C 84 % 1014,7 hPa 0,0 l/m 0 min 0 min 0 W/m 18,8 km/h (3 Bft)
10.12.2014 20:58 4,3 C 2,8 C 84 % 1014,7 hPa 0,0 l/m 0 min 0 min 0 W/m 16,7 km/h (3 Bft)
10.12.2014 21:00 4,3 C 2,8 C 84 % 1014,7 hPa 0,0 l/m 0 min 0 min 0 W/m 14,6 km/h (3 Bft)
10.12.2014 21:02 4,2 C 2,8 C 84 % 1014,6 hPa 0,0 l/m 0 min 0 min 0 W/m 14,6 km/h (3 Bft)
10.12.2014 21:04 4,2 C 2,2 C 84 % 1014,7 hPa 0,0 l/m 0 min 0 min 0 W/m 16,7 km/h (3 Bft)
10.12.2014 21:06 4,2 C 2,2 C 84 % 1014,7 hPa 0,0 l/m 0 min 0 min 0 W/m 16,7 km/h (3 Bft)
10.12.2014 21:08 4,2 C 2,2 C 84 % 1014,6 hPa 0,0 l/m 0 min 0 min 0 W/m 20,9 km/h (4 Bft)
10.12.2014 21:10 4,2 C 2,2 C 84 % 1014,7 hPa 0,0 l/m 0 min 0 min 0 W/m 20,9 km/h (4 Bft)
10.12.2014 21:12 4,2 C 2,2 C 84 % 1014,7 hPa 0,0 l/m 0 min 0 min 0 W/m 16,7 km/h (3 Bft)
10.12.2014 21:14 4,2 C 2,8 C 84 % 1014,7 hPa 0,0 l/m 0 min 0 min 0 W/m 20,9 km/h (4 Bft)
10.12.2014 21:16 4,2 C 2,2 C 84 % 1014,7 hPa 0,0 l/m 0 min 0 min 0 W/m 14,6 km/h (3 Bft)
10.12.2014 21:18 4,2 C 2,2 C 84 % 1014,7 hPa 0,0 l/m 0 min 0 min 0 W/m 12,6 km/h (3 Bft)
10.12.2014 21:20 4,2 C 2,2 C 84 % 1014,7 hPa 0,0 l/m 0 min 0 min 0 W/m 23,0 km/h (4 Bft)
10.12.2014 21:22 4,2 C 2,2 C 84 % 1014,8 hPa 0,0 l/m 0 min 0 min 0 W/m 14,6 km/h (3 Bft)
10.12.2014 21:24 4,2 C 2,2 C 84 % 1014,8 hPa 0,0 l/m 0 min 0 min 0 W/m 10,5 km/h (2 Bft)
10.12.2014 21:26 4,2 C 2,2 C 84 % 1014,8 hPa 0,0 l/m 0 min 0 min 0 W/m 12,6 km/h (3 Bft)
10.12.2014 21:28 4,2 C 2,2 C 84 % 1014,8 hPa 0,0 l/m 0 min 0 min 0 W/m 12,6 km/h (3 Bft)
10.12.2014 21:30 4,2 C 2,2 C 84 % 1014,9 hPa 0,0 l/m 0 min 0 min 0 W/m 12,6 km/h (3 Bft)
10.12.2014 21:32 4,1 C 2,2 C 84 % 1014,8 hPa 0,0 l/m 0 min 0 min 0 W/m 14,6 km/h (3 Bft)
10.12.2014 21:34 4,1 C 2,2 C 84 % 1014,8 hPa 0,0 l/m 0 min 0 min 0 W/m 14,6 km/h (3 Bft)
10.12.2014 21:36 4,1 C 2,2 C 84 % 1014,8 hPa 0,0 l/m 0 min 0 min 0 W/m 20,9 km/h (4 Bft)
10.12.2014 21:38 4,1 C 2,2 C 84 % 1014,8 hPa 0,0 l/m 0 min 0 min 0 W/m 16,7 km/h (3 Bft)
10.12.2014 21:40 4,1 C 2,2 C 84 % 1014,8 hPa 0,0 l/m 0 min 0 min 0 W/m 10,5 km/h (2 Bft)
10.12.2014 21:42 4,1 C 2,2 C 84 % 1014,9 hPa 0,0 l/m 0 min 0 min 0 W/m 16,7 km/h (3 Bft)
10.12.2014 21:44 4,1 C 2,2 C 84 % 1014,8 hPa 0,0 l/m 0 min 0 min 0 W/m 18,8 km/h (3 Bft)
10.12.2014 21:46 4,1 C 2,2 C 84 % 1014,9 hPa 0,0 l/m 0 min 0 min 0 W/m 14,6 km/h (3 Bft)
10.12.2014 21:48 4,1 C 2,2 C 84 % 1014,9 hPa 0,0 l/m 0 min 0 min 0 W/m 12,6 km/h (3 Bft)
10.12.2014 21:50 4,1 C 2,2 C 84 % 1014,9 hPa 0,0 l/m 0 min 0 min 0 W/m 14,6 km/h (3 Bft)
10.12.2014 21:52 4,0 C 2,2 C 84 % 1015,0 hPa 0,0 l/m 0 min 0 min 0 W/m 14,6 km/h (3 Bft)
10.12.2014 21:54 4,0 C 2,2 C 84 % 1015,0 hPa 0,0 l/m 0 min 0 min 0 W/m 14,6 km/h (3 Bft)
10.12.2014 21:56 4,0 C 2,2 C 84 % 1015,0 hPa 0,0 l/m 0 min 0 min 0 W/m 14,6 km/h (3 Bft)
10.12.2014 21:58 4,0 C 2,2 C 84 % 1015,0 hPa 0,0 l/m 0 min 0 min 0 W/m 12,6 km/h (3 Bft)
10.12.2014 22:00 4,0 C 2,2 C 84 % 1015,0 hPa 0,0 l/m 0 min 0 min 0 W/m 16,7 km/h (3 Bft)
10.12.2014 22:02 4,0 C 2,2 C 84 % 1014,9 hPa 0,0 l/m 0 min 0 min 0 W/m 14,6 km/h (3 Bft)
10.12.2014 22:04 4,0 C 2,2 C 84 % 1014,9 hPa 0,0 l/m 0 min 0 min 0 W/m 14,6 km/h (3 Bft)
10.12.2014 22:06 4,0 C 2,2 C 84 % 1014,9 hPa 0,0 l/m 0 min 0 min 0 W/m 10,5 km/h (2 Bft)
10.12.2014 22:08 4,0 C 2,2 C 84 % 1014,9 hPa 0,0 l/m 0 min 0 min 0 W/m 8,4 km/h (2 Bft)
10.12.2014 22:10 3,9 C 2,2 C 84 % 1014,9 hPa 0,0 l/m 0 min 0 min 0 W/m 12,6 km/h (3 Bft)
10.12.2014 22:12 3,9 C 2,2 C 84 % 1014,8 hPa 0,0 l/m 0 min 0 min 0 W/m 12,6 km/h (3 Bft)
10.12.2014 22:14 3,9 C 2,2 C 84 % 1014,9 hPa 0,0 l/m 0 min 0 min 0 W/m 12,6 km/h (3 Bft)
10.12.2014 22:16 3,9 C 2,2 C 85 % 1014,9 hPa 0,0 l/m 0 min 0 min 0 W/m 16,7 km/h (3 Bft)
10.12.2014 22:18 3,9 C 2,2 C 85 % 1014,9 hPa 0,0 l/m 0 min 0 min 0 W/m 14,6 km/h (3 Bft)
10.12.2014 22:20 3,9 C 2,2 C 85 % 1014,9 hPa 0,0 l/m 0 min 0 min 0 W/m 10,5 km/h (2 Bft)
10.12.2014 22:22 3,9 C 2,2 C 85 % 1014,9 hPa 0,0 l/m 0 min 0 min 0 W/m 18,8 km/h (3 Bft)
10.12.2014 22:24 3,9 C 2,2 C 85 % 1014,9 hPa 0,0 l/m 0 min 0 min 0 W/m 14,6 km/h (3 Bft)
10.12.2014 22:26 3,9 C 2,2 C 85 % 1014,9 hPa 0,0 l/m 0 min 0 min 0 W/m 8,4 km/h (2 Bft)
10.12.2014 22:28 3,9 C 2,2 C 85 % 1014,9 hPa 0,0 l/m 0 min 0 min 0 W/m 14,6 km/h (3 Bft)
10.12.2014 22:30 3,8 C 2,2 C 85 % 1014,9 hPa 0,0 l/m 0 min 0 min 0 W/m 12,6 km/h (3 Bft)
10.12.2014 22:32 3,8 C 2,2 C 85 % 1014,9 hPa 0,0 l/m 0 min 0 min 0 W/m 16,7 km/h (3 Bft)
10.12.2014 22:34 3,8 C 2,2 C 86 % 1014,9 hPa 0,0 l/m 0 min 0 min 0 W/m 18,8 km/h (3 Bft)
10.12.2014 22:36 3,8 C 2,2 C 86 % 1014,9 hPa 0,0 l/m 0 min 0 min 0 W/m 14,6 km/h (3 Bft)
10.12.2014 22:38 3,8 C 2,2 C 86 % 1014,9 hPa 0,0 l/m 0 min 0 min 0 W/m 14,6 km/h (3 Bft)
10.12.2014 22:40 3,8 C 2,2 C 86 % 1014,9 hPa 0,0 l/m 0 min 0 min 0 W/m 12,6 km/h (3 Bft)
10.12.2014 22:42 3,8 C 2,2 C 86 % 1014,9 hPa 0,0 l/m 0 min 0 min 0 W/m 14,6 km/h (3 Bft)
10.12.2014 22:44 3,8 C 2,2 C 86 % 1014,9 hPa 0,0 l/m 0 min 0 min 0 W/m 16,7 km/h (3 Bft)
10.12.2014 22:46 3,8 C 2,2 C 86 % 1014,9 hPa 0,0 l/m 0 min 0 min 0 W/m 12,6 km/h (3 Bft)
10.12.2014 22:48 3,8 C 2,2 C 86 % 1014,9 hPa 0,0 l/m 0 min 0 min 0 W/m 14,6 km/h (3 Bft)
10.12.2014 22:50 3,8 C 2,2 C 86 % 1014,9 hPa 0,0 l/m 0 min 0 min 0 W/m 18,8 km/h (3 Bft)
10.12.2014 22:52 3,8 C 2,2 C 86 % 1015,0 hPa 0,0 l/m 0 min 0 min 0 W/m 16,7 km/h (3 Bft)
10.12.2014 22:54 3,8 C 2,2 C 87 % 1015,0 hPa 0,0 l/m 0 min 0 min 0 W/m 12,6 km/h (3 Bft)
10.12.2014 22:56 3,8 C 2,2 C 87 % 1014,9 hPa 0,0 l/m 0 min 0 min 0 W/m 14,6 km/h (3 Bft)
10.12.2014 22:58 3,8 C 2,2 C 87 % 1014,9 hPa 0,0 l/m 0 min 0 min 0 W/m 14,6 km/h (3 Bft)
10.12.2014 23:00 3,9 C 2,2 C 87 % 1014,9 hPa 0,0 l/m 0 min 0 min 0 W/m 12,6 km/h (3 Bft)
10.12.2014 23:02 3,8 C 2,2 C 87 % 1014,9 hPa 0,0 l/m 0 min 0 min 0 W/m 20,9 km/h (4 Bft)
10.12.2014 23:04 3,9 C 2,8 C 87 % 1014,9 hPa 0,0 l/m 0 min 0 min 0 W/m 16,7 km/h (3 Bft)
10.12.2014 23:06 3,9 C 2,2 C 87 % 1014,9 hPa 0,0 l/m 0 min 0 min 0 W/m 16,7 km/h (3 Bft)
10.12.2014 23:08 3,9 C 2,2 C 87 % 1014,8 hPa 0,0 l/m 0 min 0 min 0 W/m 14,6 km/h (3 Bft)
10.12.2014 23:10 3,9 C 2,2 C 87 % 1014,9 hPa 0,0 l/m 0 min 0 min 0 W/m 14,6 km/h (3 Bft)
10.12.2014 23:12 3,9 C 2,8 C 87 % 1014,9 hPa 0,0 l/m 0 min 0 min 0 W/m 25,1 km/h (4 Bft)
10.12.2014 23:14 3,9 C 2,8 C 87 % 1014,9 hPa 0,0 l/m 0 min 0 min 0 W/m 20,9 km/h (4 Bft)
10.12.2014 23:16 3,9 C 2,8 C 87 % 1014,8 hPa 0,0 l/m 0 min 0 min 0 W/m 16,7 km/h (3 Bft)
10.12.2014 23:18 3,9 C 2,8 C 88 % 1014,8 hPa 0,0 l/m 0 min 0 min 0 W/m 12,6 km/h (3 Bft)
10.12.2014 23:20 3,9 C 2,8 C 88 % 1014,8 hPa 0,0 l/m 0 min 0 min 0 W/m 16,7 km/h (3 Bft)
10.12.2014 23:22 3,9 C 2,8 C 88 % 1014,7 hPa 0,0 l/m 0 min 0 min 0 W/m 16,7 km/h (3 Bft)
10.12.2014 23:24 3,9 C 2,2 C 87 % 1014,7 hPa 0,0 l/m 0 min 0 min 0 W/m 18,8 km/h (3 Bft)
10.12.2014 23:26 3,9 C 2,2 C 87 % 1014,7 hPa 0,0 l/m 0 min 0 min 0 W/m 18,8 km/h (3 Bft)
10.12.2014 23:28 4,0 C 2,8 C 87 % 1014,8 hPa 0,0 l/m 0 min 0 min 0 W/m 18,8 km/h (3 Bft)
10.12.2014 23:30 4,0 C 2,8 C 88 % 1014,7 hPa 0,0 l/m 0 min 0 min 0 W/m 14,6 km/h (3 Bft)
10.12.2014 23:32 4,0 C 2,8 C 88 % 1014,7 hPa 0,0 l/m 0 min 0 min 0 W/m 20,9 km/h (4 Bft)
10.12.2014 23:34 4,0 C 2,8 C 88 % 1014,6 hPa 0,0 l/m 0 min 0 min 0 W/m 16,7 km/h (3 Bft)
10.12.2014 23:36 4,0 C 2,8 C 88 % 1014,6 hPa 0,0 l/m 0 min 0 min 0 W/m 18,8 km/h (3 Bft)
10.12.2014 23:38 4,0 C 2,8 C 88 % 1014,7 hPa 0,0 l/m 0 min 0 min 0 W/m 18,8 km/h (3 Bft)
10.12.2014 23:40 4,0 C 2,8 C 88 % 1014,6 hPa 0,0 l/m 0 min 0 min 0 W/m 16,7 km/h (3 Bft)
10.12.2014 23:42 4,1 C 2,8 C 88 % 1014,6 hPa 0,0 l/m 0 min 0 min 0 W/m 20,9 km/h (4 Bft)
10.12.2014 23:44 4,1 C 2,8 C 88 % 1014,5 hPa 0,0 l/m 0 min 0 min 0 W/m 16,7 km/h (3 Bft)
10.12.2014 23:46 4,1 C 2,8 C 88 % 1014,5 hPa 0,0 l/m 0 min 0 min 0 W/m 14,6 km/h (3 Bft)
10.12.2014 23:48 4,1 C 2,8 C 88 % 1014,5 hPa 0,0 l/m 0 min 0 min 0 W/m 14,6 km/h (3 Bft)
10.12.2014 23:50 4,1 C 2,8 C 88 % 1014,4 hPa 0,0 l/m 0 min 0 min 0 W/m 16,7 km/h (3 Bft)
10.12.2014 23:52 4,1 C 2,8 C 88 % 1014,5 hPa 0,0 l/m 0 min 0 min 0 W/m 14,6 km/h (3 Bft)
10.12.2014 23:54 4,1 C 2,8 C 88 % 1014,5 hPa 0,0 l/m 0 min 0 min 0 W/m 16,7 km/h (3 Bft)
10.12.2014 23:56 4,1 C 2,8 C 88 % 1014,4 hPa 0,0 l/m 0 min 0 min 0 W/m 18,8 km/h (3 Bft)
10.12.2014 23:58 4,1 C 2,8 C 88 % 1014,2 hPa 0,0 l/m 0 min 0 min 0 W/m 14,6 km/h (3 Bft)
_ Min-Zeit 00:02 00:00 04:30 23:58 - - - - 16:26
Minimum _ 3,4 C 2,2 C 76 % 1014,2 hPa - - - - 6,3 km/h (2 Bft)
_ Max-Zeit 14:00 13:24 08:02 00:00 05:16 12:00 04:52 12:38 09:56
Maximum _ 8,5 C 6,7 C 96 % 1023,9 hPa 0,2 l/m 2 min 2 min 249 W/m 55,8 km/h
SW (7 Bft)
Durchschnitt _ 5,4 C 3,7 C 87 % 1016,3 hPa #2,6 l/m #2:12 h #2:56 h 78 W/m 23,4 km/h (4 Bft)
© 2015 W. Hausmann